<?xml version="1.0" encoding="UTF-8" standalone="no" ?>
<gpx xmlns="http://www.topografix.com/GPX/1/1" xmlns:xsi="http://www.w3.org/2001/XMLSchema-instance" xsi:schemaLocation="http://www.topografix.com/GPX/1/1 http://www.topografix.com/GPX/1/1/gpx.xsd" version="1.1" creator="VisuGPX - https://www.visugpx.com">
  <metadata>
    <name>Lacs du Mont Coua</name>
    <desc><![CDATA[Lacs du Mont Coua]]></desc>
  </metadata>
  <trk>
    <name><![CDATA[2016-07-15 07:00]]></name>
    <desc><![CDATA[<p>Heure de départ: 07/15/2016 07:00</p><p>Heure d'arrivée: 07/15/2016 14:31</p><p>Distance: 21,2 km (07:30)</p><p>Temps déplacement: 05:30</p><p>Vitesse moyenne: 2,83 km/h</p><p>Vitesse moyenne mouv.: 3,85 km/h</p><p>Vitesse Max.: 15,38km/h</p><p>Altitude minimale: 1623 m</p><p>Altitude maximale: 2612 m</p><p>Vitesse de montée: 397,1 m/h</p><p>Vitesse de descente: -346 m/h</p><p>Gain d'altitude: 1290 m</p><p>Perte d'altitude: -1251 m</p><p>Temps de montée: 03:15</p><p>Temps de descente: 03:37</p><hr align="center" width="480" style="height: 2px; width: 517px"/>]]></desc>
    <trkseg>
      <trkpt lat="45.36718" lon="6.5849">
        <ele>1654.53</ele>
        <time>2016-07-15T05:00:17Z</time>
      </trkpt>
      <trkpt lat="45.367" lon="6.58516">
        <ele>1656.32</ele>
        <time>2016-07-15T05:00:20Z</time>
      </trkpt>
      <trkpt lat="45.36684" lon="6.58533">
        <ele>1670.66</ele>
        <time>2016-07-15T05:00:26Z</time>
      </trkpt>
      <trkpt lat="45.36699" lon="6.58518">
        <ele>1678.37</ele>
        <time>2016-07-15T05:00:35Z</time>
      </trkpt>
      <trkpt lat="45.36717" lon="6.58506">
        <ele>1682.47</ele>
        <time>2016-07-15T05:00:39Z</time>
      </trkpt>
      <trkpt lat="45.36734" lon="6.58491">
        <ele>1680.58</ele>
        <time>2016-07-15T05:00:45Z</time>
      </trkpt>
      <trkpt lat="45.36715" lon="6.58498">
        <ele>1675.73</ele>
        <time>2016-07-15T05:01:22Z</time>
      </trkpt>
      <trkpt lat="45.36698" lon="6.58511">
        <ele>1677.33</ele>
        <time>2016-07-15T05:01:32Z</time>
      </trkpt>
      <trkpt lat="45.36684" lon="6.58526">
        <ele>1682.49</ele>
        <time>2016-07-15T05:01:42Z</time>
      </trkpt>
      <trkpt lat="45.3667" lon="6.58543">
        <ele>1691.65</ele>
        <time>2016-07-15T05:01:56Z</time>
      </trkpt>
      <trkpt lat="45.36653" lon="6.58552">
        <ele>1704.56</ele>
        <time>2016-07-15T05:02:13Z</time>
      </trkpt>
      <trkpt lat="45.36636" lon="6.58562">
        <ele>1708.75</ele>
        <time>2016-07-15T05:02:34Z</time>
      </trkpt>
      <trkpt lat="45.36616" lon="6.58555">
        <ele>1707.38</ele>
        <time>2016-07-15T05:02:51Z</time>
      </trkpt>
      <trkpt lat="45.36598" lon="6.58553">
        <ele>1711.74</ele>
        <time>2016-07-15T05:03:03Z</time>
      </trkpt>
      <trkpt lat="45.36581" lon="6.58542">
        <ele>1719.25</ele>
        <time>2016-07-15T05:03:14Z</time>
      </trkpt>
      <trkpt lat="45.36563" lon="6.58535">
        <ele>1718.32</ele>
        <time>2016-07-15T05:03:29Z</time>
      </trkpt>
      <trkpt lat="45.36545" lon="6.58534">
        <ele>1718.17</ele>
        <time>2016-07-15T05:03:42Z</time>
      </trkpt>
      <trkpt lat="45.36524" lon="6.58533">
        <ele>1725.25</ele>
        <time>2016-07-15T05:03:55Z</time>
      </trkpt>
      <trkpt lat="45.36506" lon="6.58532">
        <ele>1736.38</ele>
        <time>2016-07-15T05:04:05Z</time>
      </trkpt>
      <trkpt lat="45.36487" lon="6.58532">
        <ele>1738.4</ele>
        <time>2016-07-15T05:04:17Z</time>
      </trkpt>
      <trkpt lat="45.36472" lon="6.58546">
        <ele>1737.79</ele>
        <time>2016-07-15T05:04:33Z</time>
      </trkpt>
      <trkpt lat="45.36457" lon="6.58561">
        <ele>1719.98</ele>
        <time>2016-07-15T05:04:51Z</time>
      </trkpt>
      <trkpt lat="45.36437" lon="6.58556">
        <ele>1709.37</ele>
        <time>2016-07-15T05:05:09Z</time>
      </trkpt>
      <trkpt lat="45.36421" lon="6.58545">
        <ele>1704.53</ele>
        <time>2016-07-15T05:05:20Z</time>
      </trkpt>
      <trkpt lat="45.36405" lon="6.58531">
        <ele>1706.37</ele>
        <time>2016-07-15T05:05:33Z</time>
      </trkpt>
      <trkpt lat="45.36389" lon="6.58517">
        <ele>1623.79</ele>
        <time>2016-07-15T05:05:44Z</time>
      </trkpt>
      <trkpt lat="45.36371" lon="6.5851">
        <ele>1684.23</ele>
        <time>2016-07-15T05:05:56Z</time>
      </trkpt>
      <trkpt lat="45.36353" lon="6.5851">
        <ele>1697.29</ele>
        <time>2016-07-15T05:06:12Z</time>
      </trkpt>
      <trkpt lat="45.36335" lon="6.58503">
        <ele>1701.71</ele>
        <time>2016-07-15T05:06:21Z</time>
      </trkpt>
      <trkpt lat="45.36317" lon="6.58504">
        <ele>1701.13</ele>
        <time>2016-07-15T05:06:32Z</time>
      </trkpt>
      <trkpt lat="45.36298" lon="6.58504">
        <ele>1702.58</ele>
        <time>2016-07-15T05:06:44Z</time>
      </trkpt>
      <trkpt lat="45.36283" lon="6.58519">
        <ele>1701.68</ele>
        <time>2016-07-15T05:06:57Z</time>
      </trkpt>
      <trkpt lat="45.36266" lon="6.58531">
        <ele>1702.53</ele>
        <time>2016-07-15T05:07:07Z</time>
      </trkpt>
      <trkpt lat="45.36247" lon="6.58534">
        <ele>1699.78</ele>
        <time>2016-07-15T05:07:16Z</time>
      </trkpt>
      <trkpt lat="45.36231" lon="6.58546">
        <ele>1699.74</ele>
        <time>2016-07-15T05:07:32Z</time>
      </trkpt>
      <trkpt lat="45.36213" lon="6.58558">
        <ele>1696.55</ele>
        <time>2016-07-15T05:07:46Z</time>
      </trkpt>
      <trkpt lat="45.36193" lon="6.58569">
        <ele>1698.49</ele>
        <time>2016-07-15T05:07:59Z</time>
      </trkpt>
      <trkpt lat="45.36179" lon="6.5859">
        <ele>1707.36</ele>
        <time>2016-07-15T05:08:09Z</time>
      </trkpt>
      <trkpt lat="45.36173" lon="6.58614">
        <ele>1699.73</ele>
        <time>2016-07-15T05:08:30Z</time>
      </trkpt>
      <trkpt lat="45.36162" lon="6.58638">
        <ele>1701.49</ele>
        <time>2016-07-15T05:08:43Z</time>
      </trkpt>
      <trkpt lat="45.36159" lon="6.58665">
        <ele>1707.29</ele>
        <time>2016-07-15T05:08:53Z</time>
      </trkpt>
      <trkpt lat="45.36146" lon="6.58683">
        <ele>1704.74</ele>
        <time>2016-07-15T05:09:09Z</time>
      </trkpt>
      <trkpt lat="45.36133" lon="6.58702">
        <ele>1702.57</ele>
        <time>2016-07-15T05:09:22Z</time>
      </trkpt>
      <trkpt lat="45.36123" lon="6.58726">
        <ele>1703.49</ele>
        <time>2016-07-15T05:09:36Z</time>
      </trkpt>
      <trkpt lat="45.36109" lon="6.58744">
        <ele>1703.17</ele>
        <time>2016-07-15T05:09:47Z</time>
      </trkpt>
      <trkpt lat="45.36091" lon="6.58758">
        <ele>1705.36</ele>
        <time>2016-07-15T05:09:58Z</time>
      </trkpt>
      <trkpt lat="45.36088" lon="6.58783">
        <ele>1701.57</ele>
        <time>2016-07-15T05:10:14Z</time>
      </trkpt>
      <trkpt lat="45.36076" lon="6.58804">
        <ele>1701.54</ele>
        <time>2016-07-15T05:10:28Z</time>
      </trkpt>
      <trkpt lat="45.36059" lon="6.58821">
        <ele>1702.53</ele>
        <time>2016-07-15T05:10:41Z</time>
      </trkpt>
      <trkpt lat="45.36043" lon="6.58834">
        <ele>1706.52</ele>
        <time>2016-07-15T05:10:54Z</time>
      </trkpt>
      <trkpt lat="45.36024" lon="6.58848">
        <ele>1706.34</ele>
        <time>2016-07-15T05:11:05Z</time>
      </trkpt>
      <trkpt lat="45.36006" lon="6.58853">
        <ele>1705.57</ele>
        <time>2016-07-15T05:11:22Z</time>
      </trkpt>
      <trkpt lat="45.3599" lon="6.58871">
        <ele>1706.33</ele>
        <time>2016-07-15T05:11:33Z</time>
      </trkpt>
      <trkpt lat="45.35973" lon="6.58883">
        <ele>1706.17</ele>
        <time>2016-07-15T05:11:41Z</time>
      </trkpt>
      <trkpt lat="45.35959" lon="6.58906">
        <ele>1703.54</ele>
        <time>2016-07-15T05:11:59Z</time>
      </trkpt>
      <trkpt lat="45.35948" lon="6.58927">
        <ele>1704.73</ele>
        <time>2016-07-15T05:12:18Z</time>
      </trkpt>
      <trkpt lat="45.35936" lon="6.58948">
        <ele>1705.53</ele>
        <time>2016-07-15T05:12:30Z</time>
      </trkpt>
      <trkpt lat="45.35927" lon="6.58972">
        <ele>1707.57</ele>
        <time>2016-07-15T05:12:43Z</time>
      </trkpt>
      <trkpt lat="45.35911" lon="6.58992">
        <ele>1707.52</ele>
        <time>2016-07-15T05:12:55Z</time>
      </trkpt>
      <trkpt lat="45.35896" lon="6.59008">
        <ele>1709.49</ele>
        <time>2016-07-15T05:13:07Z</time>
      </trkpt>
      <trkpt lat="45.35877" lon="6.5902">
        <ele>1708.37</ele>
        <time>2016-07-15T05:13:20Z</time>
      </trkpt>
      <trkpt lat="45.35887" lon="6.59044">
        <ele>1704.54</ele>
        <time>2016-07-15T05:13:40Z</time>
      </trkpt>
      <trkpt lat="45.35884" lon="6.5907">
        <ele>1699.61</ele>
        <time>2016-07-15T05:13:56Z</time>
      </trkpt>
      <trkpt lat="45.35886" lon="6.59095">
        <ele>1709.54</ele>
        <time>2016-07-15T05:14:14Z</time>
      </trkpt>
      <trkpt lat="45.35893" lon="6.5912">
        <ele>1713.28</ele>
        <time>2016-07-15T05:14:33Z</time>
      </trkpt>
      <trkpt lat="45.35901" lon="6.59143">
        <ele>1714.29</ele>
        <time>2016-07-15T05:14:53Z</time>
      </trkpt>
      <trkpt lat="45.359" lon="6.5917">
        <ele>1723.37</ele>
        <time>2016-07-15T05:15:15Z</time>
      </trkpt>
      <trkpt lat="45.3589" lon="6.59194">
        <ele>1723.37</ele>
        <time>2016-07-15T05:15:34Z</time>
      </trkpt>
      <trkpt lat="45.35881" lon="6.59216">
        <ele>1728.49</ele>
        <time>2016-07-15T05:16:03Z</time>
      </trkpt>
      <trkpt lat="45.35866" lon="6.59233">
        <ele>1733.33</ele>
        <time>2016-07-15T05:16:18Z</time>
      </trkpt>
      <trkpt lat="45.35848" lon="6.59245">
        <ele>1734.34</ele>
        <time>2016-07-15T05:16:37Z</time>
      </trkpt>
      <trkpt lat="45.35834" lon="6.5926">
        <ele>1733.73</ele>
        <time>2016-07-15T05:16:54Z</time>
      </trkpt>
      <trkpt lat="45.35826" lon="6.59284">
        <ele>1735.49</ele>
        <time>2016-07-15T05:17:11Z</time>
      </trkpt>
      <trkpt lat="45.35822" lon="6.5931">
        <ele>1732.56</ele>
        <time>2016-07-15T05:17:27Z</time>
      </trkpt>
      <trkpt lat="45.35806" lon="6.59324">
        <ele>1738.53</ele>
        <time>2016-07-15T05:17:49Z</time>
      </trkpt>
      <trkpt lat="45.35792" lon="6.59341">
        <ele>1742.7</ele>
        <time>2016-07-15T05:18:14Z</time>
      </trkpt>
      <trkpt lat="45.35791" lon="6.59366">
        <ele>1742.48</ele>
        <time>2016-07-15T05:18:34Z</time>
      </trkpt>
      <trkpt lat="45.35777" lon="6.59385">
        <ele>1747.49</ele>
        <time>2016-07-15T05:18:54Z</time>
      </trkpt>
      <trkpt lat="45.35767" lon="6.59407">
        <ele>1751.53</ele>
        <time>2016-07-15T05:19:17Z</time>
      </trkpt>
      <trkpt lat="45.35758" lon="6.5943">
        <ele>1752.33</ele>
        <time>2016-07-15T05:19:35Z</time>
      </trkpt>
      <trkpt lat="45.35756" lon="6.59456">
        <ele>1751.57</ele>
        <time>2016-07-15T05:19:54Z</time>
      </trkpt>
      <trkpt lat="45.35756" lon="6.59481">
        <ele>1759.69</ele>
        <time>2016-07-15T05:20:07Z</time>
      </trkpt>
      <trkpt lat="45.3576" lon="6.59509">
        <ele>1757.57</ele>
        <time>2016-07-15T05:20:25Z</time>
      </trkpt>
      <trkpt lat="45.35754" lon="6.59533">
        <ele>1764.08</ele>
        <time>2016-07-15T05:20:38Z</time>
      </trkpt>
      <trkpt lat="45.35744" lon="6.59555">
        <ele>1761.34</ele>
        <time>2016-07-15T05:20:57Z</time>
      </trkpt>
      <trkpt lat="45.35733" lon="6.59576">
        <ele>1761.53</ele>
        <time>2016-07-15T05:21:15Z</time>
      </trkpt>
      <trkpt lat="45.35724" lon="6.59598">
        <ele>1763.53</ele>
        <time>2016-07-15T05:21:30Z</time>
      </trkpt>
      <trkpt lat="45.35715" lon="6.59621">
        <ele>1764.56</ele>
        <time>2016-07-15T05:21:48Z</time>
      </trkpt>
      <trkpt lat="45.35707" lon="6.59645">
        <ele>1763.52</ele>
        <time>2016-07-15T05:22:09Z</time>
      </trkpt>
      <trkpt lat="45.357" lon="6.59669">
        <ele>1768.18</ele>
        <time>2016-07-15T05:22:25Z</time>
      </trkpt>
      <trkpt lat="45.35695" lon="6.59695">
        <ele>1769.57</ele>
        <time>2016-07-15T05:23:27Z</time>
      </trkpt>
      <trkpt lat="45.35693" lon="6.59722">
        <ele>1769.34</ele>
        <time>2016-07-15T05:23:39Z</time>
      </trkpt>
      <trkpt lat="45.35703" lon="6.59744">
        <ele>1766.53</ele>
        <time>2016-07-15T05:24:03Z</time>
      </trkpt>
      <trkpt lat="45.35705" lon="6.5977">
        <ele>1766.32</ele>
        <time>2016-07-15T05:24:21Z</time>
      </trkpt>
      <trkpt lat="45.35687" lon="6.59775">
        <ele>1765.61</ele>
        <time>2016-07-15T05:24:44Z</time>
      </trkpt>
      <trkpt lat="45.35668" lon="6.59774">
        <ele>1765.33</ele>
        <time>2016-07-15T05:24:59Z</time>
      </trkpt>
      <trkpt lat="45.35647" lon="6.59776">
        <ele>1771.52</ele>
        <time>2016-07-15T05:25:19Z</time>
      </trkpt>
      <trkpt lat="45.35629" lon="6.59784">
        <ele>1769.57</ele>
        <time>2016-07-15T05:25:41Z</time>
      </trkpt>
      <trkpt lat="45.35627" lon="6.59811">
        <ele>1765.33</ele>
        <time>2016-07-15T05:26:06Z</time>
      </trkpt>
      <trkpt lat="45.35611" lon="6.59825">
        <ele>1770.56</ele>
        <time>2016-07-15T05:26:23Z</time>
      </trkpt>
      <trkpt lat="45.35594" lon="6.59835">
        <ele>1774.72</ele>
        <time>2016-07-15T05:26:42Z</time>
      </trkpt>
      <trkpt lat="45.35593" lon="6.59861">
        <ele>1771.93</ele>
        <time>2016-07-15T05:27:01Z</time>
      </trkpt>
      <trkpt lat="45.35593" lon="6.59887">
        <ele>1773.33</ele>
        <time>2016-07-15T05:27:22Z</time>
      </trkpt>
      <trkpt lat="45.35593" lon="6.59913">
        <ele>1775.53</ele>
        <time>2016-07-15T05:27:44Z</time>
      </trkpt>
      <trkpt lat="45.3559" lon="6.59939">
        <ele>1777.51</ele>
        <time>2016-07-15T05:28:00Z</time>
      </trkpt>
      <trkpt lat="45.35606" lon="6.59952">
        <ele>1790.12</ele>
        <time>2016-07-15T05:28:32Z</time>
      </trkpt>
      <trkpt lat="45.35624" lon="6.59945">
        <ele>1795.47</ele>
        <time>2016-07-15T05:28:50Z</time>
      </trkpt>
      <trkpt lat="45.35642" lon="6.5994">
        <ele>1798.73</ele>
        <time>2016-07-15T05:29:10Z</time>
      </trkpt>
      <trkpt lat="45.35647" lon="6.59966">
        <ele>1799.49</ele>
        <time>2016-07-15T05:29:37Z</time>
      </trkpt>
      <trkpt lat="45.3564" lon="6.5999">
        <ele>1803.92</ele>
        <time>2016-07-15T05:29:55Z</time>
      </trkpt>
      <trkpt lat="45.35627" lon="6.60009">
        <ele>1798.32</ele>
        <time>2016-07-15T05:30:12Z</time>
      </trkpt>
      <trkpt lat="45.35616" lon="6.60032">
        <ele>1806.32</ele>
        <time>2016-07-15T05:30:34Z</time>
      </trkpt>
      <trkpt lat="45.35603" lon="6.6005">
        <ele>1810.37</ele>
        <time>2016-07-15T05:30:57Z</time>
      </trkpt>
      <trkpt lat="45.35588" lon="6.60067">
        <ele>1810.81</ele>
        <time>2016-07-15T05:31:16Z</time>
      </trkpt>
      <trkpt lat="45.35579" lon="6.6009">
        <ele>1813.49</ele>
        <time>2016-07-15T05:31:38Z</time>
      </trkpt>
      <trkpt lat="45.35574" lon="6.60114">
        <ele>1816.92</ele>
        <time>2016-07-15T05:31:55Z</time>
      </trkpt>
      <trkpt lat="45.35557" lon="6.60127">
        <ele>1815.52</ele>
        <time>2016-07-15T05:32:12Z</time>
      </trkpt>
      <trkpt lat="45.35542" lon="6.60143">
        <ele>1820.77</ele>
        <time>2016-07-15T05:32:34Z</time>
      </trkpt>
      <trkpt lat="45.35559" lon="6.60156">
        <ele>1830.72</ele>
        <time>2016-07-15T05:33:02Z</time>
      </trkpt>
      <trkpt lat="45.35571" lon="6.60176">
        <ele>1833.57</ele>
        <time>2016-07-15T05:33:21Z</time>
      </trkpt>
      <trkpt lat="45.35581" lon="6.602">
        <ele>1836.52</ele>
        <time>2016-07-15T05:33:42Z</time>
      </trkpt>
      <trkpt lat="45.35596" lon="6.60214">
        <ele>1841.33</ele>
        <time>2016-07-15T05:34:02Z</time>
      </trkpt>
      <trkpt lat="45.35608" lon="6.60233">
        <ele>1840.33</ele>
        <time>2016-07-15T05:34:21Z</time>
      </trkpt>
      <trkpt lat="45.35622" lon="6.60252">
        <ele>1840.77</ele>
        <time>2016-07-15T05:34:36Z</time>
      </trkpt>
      <trkpt lat="45.35641" lon="6.60258">
        <ele>1850.28</ele>
        <time>2016-07-15T05:34:51Z</time>
      </trkpt>
      <trkpt lat="45.35655" lon="6.60274">
        <ele>1847.36</ele>
        <time>2016-07-15T05:35:09Z</time>
      </trkpt>
      <trkpt lat="45.35657" lon="6.60302">
        <ele>1843.33</ele>
        <time>2016-07-15T05:35:25Z</time>
      </trkpt>
      <trkpt lat="45.35657" lon="6.60329">
        <ele>1844.7</ele>
        <time>2016-07-15T05:35:56Z</time>
      </trkpt>
      <trkpt lat="45.35655" lon="6.60357">
        <ele>1851.45</ele>
        <time>2016-07-15T05:36:08Z</time>
      </trkpt>
      <trkpt lat="45.3565" lon="6.60383">
        <ele>1847.37</ele>
        <time>2016-07-15T05:36:27Z</time>
      </trkpt>
      <trkpt lat="45.35644" lon="6.60408">
        <ele>1838.76</ele>
        <time>2016-07-15T05:36:46Z</time>
      </trkpt>
      <trkpt lat="45.35643" lon="6.60434">
        <ele>1855.41</ele>
        <time>2016-07-15T05:37:07Z</time>
      </trkpt>
      <trkpt lat="45.35636" lon="6.60459">
        <ele>1863.12</ele>
        <time>2016-07-15T05:37:26Z</time>
      </trkpt>
      <trkpt lat="45.35627" lon="6.60482">
        <ele>1874.56</ele>
        <time>2016-07-15T05:37:56Z</time>
      </trkpt>
      <trkpt lat="45.35636" lon="6.60505">
        <ele>1886.33</ele>
        <time>2016-07-15T05:38:34Z</time>
      </trkpt>
      <trkpt lat="45.35651" lon="6.6052">
        <ele>1891.33</ele>
        <time>2016-07-15T05:39:06Z</time>
      </trkpt>
      <trkpt lat="45.35667" lon="6.60534">
        <ele>1897.53</ele>
        <time>2016-07-15T05:39:34Z</time>
      </trkpt>
      <trkpt lat="45.35679" lon="6.60554">
        <ele>1897.92</ele>
        <time>2016-07-15T05:40:03Z</time>
      </trkpt>
      <trkpt lat="45.35695" lon="6.60568">
        <ele>1907.73</ele>
        <time>2016-07-15T05:40:50Z</time>
      </trkpt>
      <trkpt lat="45.35708" lon="6.60586">
        <ele>1909.54</ele>
        <time>2016-07-15T05:41:19Z</time>
      </trkpt>
      <trkpt lat="45.35723" lon="6.60601">
        <ele>1915.52</ele>
        <time>2016-07-15T05:41:45Z</time>
      </trkpt>
      <trkpt lat="45.35708" lon="6.60613">
        <ele>1914.69</ele>
        <time>2016-07-15T05:42:18Z</time>
      </trkpt>
      <trkpt lat="45.35689" lon="6.60616">
        <ele>1920.57</ele>
        <time>2016-07-15T05:42:46Z</time>
      </trkpt>
      <trkpt lat="45.3568" lon="6.60638">
        <ele>1927.09</ele>
        <time>2016-07-15T05:44:06Z</time>
      </trkpt>
      <trkpt lat="45.35666" lon="6.6066">
        <ele>1929.12</ele>
        <time>2016-07-15T05:44:10Z</time>
      </trkpt>
      <trkpt lat="45.35646" lon="6.60664">
        <ele>1934.62</ele>
        <time>2016-07-15T05:44:24Z</time>
      </trkpt>
      <trkpt lat="45.35664" lon="6.60667">
        <ele>1950.48</ele>
        <time>2016-07-15T05:45:58Z</time>
      </trkpt>
      <trkpt lat="45.35683" lon="6.60667">
        <ele>1954.33</ele>
        <time>2016-07-15T05:46:26Z</time>
      </trkpt>
      <trkpt lat="45.35697" lon="6.60684">
        <ele>1958.12</ele>
        <time>2016-07-15T05:46:48Z</time>
      </trkpt>
      <trkpt lat="45.35712" lon="6.60702">
        <ele>1964.52</ele>
        <time>2016-07-15T05:47:13Z</time>
      </trkpt>
      <trkpt lat="45.35726" lon="6.60718">
        <ele>1972.53</ele>
        <time>2016-07-15T05:47:54Z</time>
      </trkpt>
      <trkpt lat="45.35738" lon="6.60737">
        <ele>1973.26</ele>
        <time>2016-07-15T05:48:08Z</time>
      </trkpt>
      <trkpt lat="45.35753" lon="6.60753">
        <ele>1976.7</ele>
        <time>2016-07-15T05:48:23Z</time>
      </trkpt>
      <trkpt lat="45.35768" lon="6.60767">
        <ele>1977.53</ele>
        <time>2016-07-15T05:48:45Z</time>
      </trkpt>
      <trkpt lat="45.35781" lon="6.60787">
        <ele>1977.52</ele>
        <time>2016-07-15T05:49:52Z</time>
      </trkpt>
      <trkpt lat="45.35791" lon="6.60808">
        <ele>1979.54</ele>
        <time>2016-07-15T05:50:20Z</time>
      </trkpt>
      <trkpt lat="45.35802" lon="6.60829">
        <ele>1981.33</ele>
        <time>2016-07-15T05:50:42Z</time>
      </trkpt>
      <trkpt lat="45.358" lon="6.60857">
        <ele>1987.33</ele>
        <time>2016-07-15T05:51:25Z</time>
      </trkpt>
      <trkpt lat="45.35787" lon="6.60876">
        <ele>1986.73</ele>
        <time>2016-07-15T05:51:40Z</time>
      </trkpt>
      <trkpt lat="45.35771" lon="6.60891">
        <ele>1996.53</ele>
        <time>2016-07-15T05:52:08Z</time>
      </trkpt>
      <trkpt lat="45.35763" lon="6.60914">
        <ele>1990.97</ele>
        <time>2016-07-15T05:52:24Z</time>
      </trkpt>
      <trkpt lat="45.35756" lon="6.60938">
        <ele>1992.53</ele>
        <time>2016-07-15T05:52:57Z</time>
      </trkpt>
      <trkpt lat="45.35745" lon="6.6096">
        <ele>1993.5</ele>
        <time>2016-07-15T05:53:16Z</time>
      </trkpt>
      <trkpt lat="45.35731" lon="6.60978">
        <ele>1988.38</ele>
        <time>2016-07-15T05:54:23Z</time>
      </trkpt>
      <trkpt lat="45.35716" lon="6.60994">
        <ele>1988.52</ele>
        <time>2016-07-15T05:54:38Z</time>
      </trkpt>
      <trkpt lat="45.35699" lon="6.61007">
        <ele>1990.53</ele>
        <time>2016-07-15T05:54:57Z</time>
      </trkpt>
      <trkpt lat="45.35683" lon="6.61019">
        <ele>1990.34</ele>
        <time>2016-07-15T05:55:11Z</time>
      </trkpt>
      <trkpt lat="45.35666" lon="6.61034">
        <ele>1987.56</ele>
        <time>2016-07-15T05:55:30Z</time>
      </trkpt>
      <trkpt lat="45.3565" lon="6.61048">
        <ele>1988.52</ele>
        <time>2016-07-15T05:55:44Z</time>
      </trkpt>
      <trkpt lat="45.35636" lon="6.61065">
        <ele>1987.53</ele>
        <time>2016-07-15T05:55:58Z</time>
      </trkpt>
      <trkpt lat="45.3562" lon="6.61078">
        <ele>1987.33</ele>
        <time>2016-07-15T05:56:15Z</time>
      </trkpt>
      <trkpt lat="45.35605" lon="6.61094">
        <ele>1992.33</ele>
        <time>2016-07-15T05:56:32Z</time>
      </trkpt>
      <trkpt lat="45.35589" lon="6.61106">
        <ele>1994.53</ele>
        <time>2016-07-15T05:56:55Z</time>
      </trkpt>
      <trkpt lat="45.35571" lon="6.61114">
        <ele>1993.53</ele>
        <time>2016-07-15T05:57:10Z</time>
      </trkpt>
      <trkpt lat="45.35555" lon="6.61126">
        <ele>1998.49</ele>
        <time>2016-07-15T05:57:27Z</time>
      </trkpt>
      <trkpt lat="45.35536" lon="6.61123">
        <ele>1997.53</ele>
        <time>2016-07-15T05:57:43Z</time>
      </trkpt>
      <trkpt lat="45.35518" lon="6.61127">
        <ele>1991.54</ele>
        <time>2016-07-15T05:58:00Z</time>
      </trkpt>
      <trkpt lat="45.35503" lon="6.61142">
        <ele>1995.33</ele>
        <time>2016-07-15T05:58:14Z</time>
      </trkpt>
      <trkpt lat="45.35492" lon="6.61162">
        <ele>1988.33</ele>
        <time>2016-07-15T05:58:31Z</time>
      </trkpt>
      <trkpt lat="45.35477" lon="6.61178">
        <ele>1985.72</ele>
        <time>2016-07-15T05:58:47Z</time>
      </trkpt>
      <trkpt lat="45.35463" lon="6.61194">
        <ele>1986.53</ele>
        <time>2016-07-15T05:59:04Z</time>
      </trkpt>
      <trkpt lat="45.3545" lon="6.61211">
        <ele>1982.53</ele>
        <time>2016-07-15T05:59:26Z</time>
      </trkpt>
      <trkpt lat="45.35434" lon="6.61224">
        <ele>1988.68</ele>
        <time>2016-07-15T05:59:39Z</time>
      </trkpt>
      <trkpt lat="45.35423" lon="6.61245">
        <ele>1984.28</ele>
        <time>2016-07-15T05:59:56Z</time>
      </trkpt>
      <trkpt lat="45.35405" lon="6.61253">
        <ele>1991.49</ele>
        <time>2016-07-15T06:00:05Z</time>
      </trkpt>
      <trkpt lat="45.35387" lon="6.61251">
        <ele>1998.49</ele>
        <time>2016-07-15T06:00:19Z</time>
      </trkpt>
      <trkpt lat="45.35369" lon="6.61253">
        <ele>2001.53</ele>
        <time>2016-07-15T06:00:33Z</time>
      </trkpt>
      <trkpt lat="45.35351" lon="6.61262">
        <ele>2001.54</ele>
        <time>2016-07-15T06:00:48Z</time>
      </trkpt>
      <trkpt lat="45.35334" lon="6.61274">
        <ele>2000.73</ele>
        <time>2016-07-15T06:01:05Z</time>
      </trkpt>
      <trkpt lat="45.35316" lon="6.61279">
        <ele>2000.29</ele>
        <time>2016-07-15T06:01:24Z</time>
      </trkpt>
      <trkpt lat="45.35298" lon="6.61287">
        <ele>2001.52</ele>
        <time>2016-07-15T06:01:36Z</time>
      </trkpt>
      <trkpt lat="45.3528" lon="6.61292">
        <ele>2003.34</ele>
        <time>2016-07-15T06:01:48Z</time>
      </trkpt>
      <trkpt lat="45.35261" lon="6.61292">
        <ele>2005.52</ele>
        <time>2016-07-15T06:02:03Z</time>
      </trkpt>
      <trkpt lat="45.35243" lon="6.61297">
        <ele>2004.49</ele>
        <time>2016-07-15T06:02:16Z</time>
      </trkpt>
      <trkpt lat="45.35225" lon="6.61305">
        <ele>2003.72</ele>
        <time>2016-07-15T06:02:30Z</time>
      </trkpt>
      <trkpt lat="45.35207" lon="6.61315">
        <ele>2003.57</ele>
        <time>2016-07-15T06:02:45Z</time>
      </trkpt>
      <trkpt lat="45.35198" lon="6.61338">
        <ele>2004.76</ele>
        <time>2016-07-15T06:03:02Z</time>
      </trkpt>
      <trkpt lat="45.35186" lon="6.61359">
        <ele>2006.33</ele>
        <time>2016-07-15T06:03:23Z</time>
      </trkpt>
      <trkpt lat="45.35168" lon="6.61369">
        <ele>2002.29</ele>
        <time>2016-07-15T06:03:37Z</time>
      </trkpt>
      <trkpt lat="45.35149" lon="6.61374">
        <ele>2001.71</ele>
        <time>2016-07-15T06:03:59Z</time>
      </trkpt>
      <trkpt lat="45.3513" lon="6.61379">
        <ele>2002.48</ele>
        <time>2016-07-15T06:04:13Z</time>
      </trkpt>
      <trkpt lat="45.35112" lon="6.61385">
        <ele>1998.73</ele>
        <time>2016-07-15T06:04:27Z</time>
      </trkpt>
      <trkpt lat="45.35094" lon="6.61392">
        <ele>1998.69</ele>
        <time>2016-07-15T06:04:42Z</time>
      </trkpt>
      <trkpt lat="45.35077" lon="6.61405">
        <ele>1996.73</ele>
        <time>2016-07-15T06:04:57Z</time>
      </trkpt>
      <trkpt lat="45.35061" lon="6.61419">
        <ele>1995.54</ele>
        <time>2016-07-15T06:05:11Z</time>
      </trkpt>
      <trkpt lat="45.35047" lon="6.61436">
        <ele>1990.74</ele>
        <time>2016-07-15T06:05:24Z</time>
      </trkpt>
      <trkpt lat="45.35036" lon="6.61458">
        <ele>1990.33</ele>
        <time>2016-07-15T06:05:39Z</time>
      </trkpt>
      <trkpt lat="45.35022" lon="6.61474">
        <ele>1986.29</ele>
        <time>2016-07-15T06:05:52Z</time>
      </trkpt>
      <trkpt lat="45.35004" lon="6.61482">
        <ele>1991.53</ele>
        <time>2016-07-15T06:06:06Z</time>
      </trkpt>
      <trkpt lat="45.34987" lon="6.61491">
        <ele>1996.49</ele>
        <time>2016-07-15T06:06:21Z</time>
      </trkpt>
      <trkpt lat="45.34972" lon="6.61505">
        <ele>1995.69</ele>
        <time>2016-07-15T06:06:34Z</time>
      </trkpt>
      <trkpt lat="45.34955" lon="6.61514">
        <ele>1998.53</ele>
        <time>2016-07-15T06:06:50Z</time>
      </trkpt>
      <trkpt lat="45.34936" lon="6.61514">
        <ele>2002.57</ele>
        <time>2016-07-15T06:07:04Z</time>
      </trkpt>
      <trkpt lat="45.34924" lon="6.61535">
        <ele>1998.38</ele>
        <time>2016-07-15T06:07:21Z</time>
      </trkpt>
      <trkpt lat="45.34911" lon="6.61555">
        <ele>1995.35</ele>
        <time>2016-07-15T06:07:35Z</time>
      </trkpt>
      <trkpt lat="45.34894" lon="6.61565">
        <ele>2003.35</ele>
        <time>2016-07-15T06:07:49Z</time>
      </trkpt>
      <trkpt lat="45.34876" lon="6.61577">
        <ele>2005.72</ele>
        <time>2016-07-15T06:08:03Z</time>
      </trkpt>
      <trkpt lat="45.3486" lon="6.61587">
        <ele>2006.73</ele>
        <time>2016-07-15T06:08:17Z</time>
      </trkpt>
      <trkpt lat="45.34841" lon="6.61595">
        <ele>2008.52</ele>
        <time>2016-07-15T06:08:32Z</time>
      </trkpt>
      <trkpt lat="45.34823" lon="6.61603">
        <ele>2007.72</ele>
        <time>2016-07-15T06:08:45Z</time>
      </trkpt>
      <trkpt lat="45.34806" lon="6.61613">
        <ele>2007.57</ele>
        <time>2016-07-15T06:08:59Z</time>
      </trkpt>
      <trkpt lat="45.3479" lon="6.61626">
        <ele>2012.73</ele>
        <time>2016-07-15T06:09:17Z</time>
      </trkpt>
      <trkpt lat="45.34773" lon="6.61636">
        <ele>2013.73</ele>
        <time>2016-07-15T06:09:38Z</time>
      </trkpt>
      <trkpt lat="45.34757" lon="6.61649">
        <ele>2009.72</ele>
        <time>2016-07-15T06:10:02Z</time>
      </trkpt>
      <trkpt lat="45.34758" lon="6.61676">
        <ele>2009.7</ele>
        <time>2016-07-15T06:10:31Z</time>
      </trkpt>
      <trkpt lat="45.34767" lon="6.61699">
        <ele>2013.13</ele>
        <time>2016-07-15T06:10:51Z</time>
      </trkpt>
      <trkpt lat="45.34757" lon="6.61721">
        <ele>2016.73</ele>
        <time>2016-07-15T06:11:16Z</time>
      </trkpt>
      <trkpt lat="45.3474" lon="6.61731">
        <ele>2013.57</ele>
        <time>2016-07-15T06:11:31Z</time>
      </trkpt>
      <trkpt lat="45.34721" lon="6.61738">
        <ele>2013.02</ele>
        <time>2016-07-15T06:11:45Z</time>
      </trkpt>
      <trkpt lat="45.34704" lon="6.6175">
        <ele>2001.98</ele>
        <time>2016-07-15T06:11:59Z</time>
      </trkpt>
      <trkpt lat="45.34688" lon="6.61762">
        <ele>1998.94</ele>
        <time>2016-07-15T06:12:14Z</time>
      </trkpt>
      <trkpt lat="45.3467" lon="6.61771">
        <ele>2000.56</ele>
        <time>2016-07-15T06:12:30Z</time>
      </trkpt>
      <trkpt lat="45.34654" lon="6.61781">
        <ele>1997.58</ele>
        <time>2016-07-15T06:12:47Z</time>
      </trkpt>
      <trkpt lat="45.34638" lon="6.61796">
        <ele>2000.7</ele>
        <time>2016-07-15T06:13:01Z</time>
      </trkpt>
      <trkpt lat="45.34623" lon="6.6181">
        <ele>1997.74</ele>
        <time>2016-07-15T06:13:15Z</time>
      </trkpt>
      <trkpt lat="45.34607" lon="6.61823">
        <ele>1999.45</ele>
        <time>2016-07-15T06:13:33Z</time>
      </trkpt>
      <trkpt lat="45.34591" lon="6.61837">
        <ele>2002.48</ele>
        <time>2016-07-15T06:13:46Z</time>
      </trkpt>
      <trkpt lat="45.34578" lon="6.61856">
        <ele>2008.49</ele>
        <time>2016-07-15T06:14:02Z</time>
      </trkpt>
      <trkpt lat="45.34568" lon="6.61879">
        <ele>2008.36</ele>
        <time>2016-07-15T06:14:17Z</time>
      </trkpt>
      <trkpt lat="45.34559" lon="6.61903">
        <ele>2012.76</ele>
        <time>2016-07-15T06:14:33Z</time>
      </trkpt>
      <trkpt lat="45.34548" lon="6.61925">
        <ele>2006.54</ele>
        <time>2016-07-15T06:14:50Z</time>
      </trkpt>
      <trkpt lat="45.34537" lon="6.6195">
        <ele>2003.14</ele>
        <time>2016-07-15T06:15:03Z</time>
      </trkpt>
      <trkpt lat="45.34527" lon="6.61972">
        <ele>2002.54</ele>
        <time>2016-07-15T06:15:19Z</time>
      </trkpt>
      <trkpt lat="45.34519" lon="6.61997">
        <ele>2001.13</ele>
        <time>2016-07-15T06:15:32Z</time>
      </trkpt>
      <trkpt lat="45.3451" lon="6.6202">
        <ele>2005.49</ele>
        <time>2016-07-15T06:15:44Z</time>
      </trkpt>
      <trkpt lat="45.34498" lon="6.62039">
        <ele>2009.37</ele>
        <time>2016-07-15T06:15:58Z</time>
      </trkpt>
      <trkpt lat="45.34485" lon="6.62058">
        <ele>2011.48</ele>
        <time>2016-07-15T06:16:13Z</time>
      </trkpt>
      <trkpt lat="45.34469" lon="6.62075">
        <ele>2013.77</ele>
        <time>2016-07-15T06:16:29Z</time>
      </trkpt>
      <trkpt lat="45.34457" lon="6.62096">
        <ele>2012.93</ele>
        <time>2016-07-15T06:16:44Z</time>
      </trkpt>
      <trkpt lat="45.34445" lon="6.62118">
        <ele>2008.89</ele>
        <time>2016-07-15T06:17:00Z</time>
      </trkpt>
      <trkpt lat="45.34433" lon="6.62136">
        <ele>2007.3</ele>
        <time>2016-07-15T06:17:12Z</time>
      </trkpt>
      <trkpt lat="45.34422" lon="6.62159">
        <ele>2009.33</ele>
        <time>2016-07-15T06:17:26Z</time>
      </trkpt>
      <trkpt lat="45.34411" lon="6.62181">
        <ele>2014.49</ele>
        <time>2016-07-15T06:17:40Z</time>
      </trkpt>
      <trkpt lat="45.34403" lon="6.62204">
        <ele>2016.33</ele>
        <time>2016-07-15T06:18:03Z</time>
      </trkpt>
      <trkpt lat="45.34395" lon="6.6223">
        <ele>2017.4</ele>
        <time>2016-07-15T06:18:18Z</time>
      </trkpt>
      <trkpt lat="45.34387" lon="6.62253">
        <ele>2018.7</ele>
        <time>2016-07-15T06:18:31Z</time>
      </trkpt>
      <trkpt lat="45.3438" lon="6.62279">
        <ele>2013.7</ele>
        <time>2016-07-15T06:18:51Z</time>
      </trkpt>
      <trkpt lat="45.34377" lon="6.62304">
        <ele>2018.51</ele>
        <time>2016-07-15T06:19:03Z</time>
      </trkpt>
      <trkpt lat="45.34371" lon="6.62329">
        <ele>2024.29</ele>
        <time>2016-07-15T06:19:27Z</time>
      </trkpt>
      <trkpt lat="45.34369" lon="6.62354">
        <ele>2024.09</ele>
        <time>2016-07-15T06:19:40Z</time>
      </trkpt>
      <trkpt lat="45.34363" lon="6.62379">
        <ele>2020.37</ele>
        <time>2016-07-15T06:19:54Z</time>
      </trkpt>
      <trkpt lat="45.34359" lon="6.62404">
        <ele>2025.31</ele>
        <time>2016-07-15T06:20:08Z</time>
      </trkpt>
      <trkpt lat="45.34355" lon="6.6243">
        <ele>2029.93</ele>
        <time>2016-07-15T06:20:27Z</time>
      </trkpt>
      <trkpt lat="45.34357" lon="6.62456">
        <ele>2046.35</ele>
        <time>2016-07-15T06:20:41Z</time>
      </trkpt>
      <trkpt lat="45.34352" lon="6.62481">
        <ele>2057.33</ele>
        <time>2016-07-15T06:21:13Z</time>
      </trkpt>
      <trkpt lat="45.34354" lon="6.62507">
        <ele>2059.7</ele>
        <time>2016-07-15T06:21:29Z</time>
      </trkpt>
      <trkpt lat="45.34351" lon="6.62532">
        <ele>2063.29</ele>
        <time>2016-07-15T06:21:54Z</time>
      </trkpt>
      <trkpt lat="45.34332" lon="6.62535">
        <ele>2065.54</ele>
        <time>2016-07-15T06:23:39Z</time>
      </trkpt>
      <trkpt lat="45.3433" lon="6.62561">
        <ele>2068.61</ele>
        <time>2016-07-15T06:23:59Z</time>
      </trkpt>
      <trkpt lat="45.3434" lon="6.62584">
        <ele>2070.57</ele>
        <time>2016-07-15T06:24:17Z</time>
      </trkpt>
      <trkpt lat="45.34326" lon="6.626">
        <ele>2081.52</ele>
        <time>2016-07-15T06:25:12Z</time>
      </trkpt>
      <trkpt lat="45.34326" lon="6.62627">
        <ele>2087.33</ele>
        <time>2016-07-15T06:25:53Z</time>
      </trkpt>
      <trkpt lat="45.34307" lon="6.62633">
        <ele>2097.08</ele>
        <time>2016-07-15T06:26:25Z</time>
      </trkpt>
      <trkpt lat="45.34293" lon="6.62651">
        <ele>2090.82</ele>
        <time>2016-07-15T06:26:57Z</time>
      </trkpt>
      <trkpt lat="45.34288" lon="6.62676">
        <ele>2098.49</ele>
        <time>2016-07-15T06:27:27Z</time>
      </trkpt>
      <trkpt lat="45.34276" lon="6.62694">
        <ele>2099.58</ele>
        <time>2016-07-15T06:27:46Z</time>
      </trkpt>
      <trkpt lat="45.34262" lon="6.62712">
        <ele>2097.37</ele>
        <time>2016-07-15T06:28:01Z</time>
      </trkpt>
      <trkpt lat="45.34252" lon="6.62734">
        <ele>2100.56</ele>
        <time>2016-07-15T06:28:21Z</time>
      </trkpt>
      <trkpt lat="45.34242" lon="6.62757">
        <ele>2101.29</ele>
        <time>2016-07-15T06:28:37Z</time>
      </trkpt>
      <trkpt lat="45.34234" lon="6.62781">
        <ele>2102.54</ele>
        <time>2016-07-15T06:28:55Z</time>
      </trkpt>
      <trkpt lat="45.34224" lon="6.62804">
        <ele>2102.65</ele>
        <time>2016-07-15T06:29:11Z</time>
      </trkpt>
      <trkpt lat="45.34212" lon="6.62825">
        <ele>2103.53</ele>
        <time>2016-07-15T06:29:25Z</time>
      </trkpt>
      <trkpt lat="45.34203" lon="6.62847">
        <ele>2102.33</ele>
        <time>2016-07-15T06:29:38Z</time>
      </trkpt>
      <trkpt lat="45.34197" lon="6.62874">
        <ele>2101.33</ele>
        <time>2016-07-15T06:29:55Z</time>
      </trkpt>
      <trkpt lat="45.34192" lon="6.62899">
        <ele>2100.56</ele>
        <time>2016-07-15T06:30:11Z</time>
      </trkpt>
      <trkpt lat="45.34187" lon="6.62925">
        <ele>2104.66</ele>
        <time>2016-07-15T06:30:25Z</time>
      </trkpt>
      <trkpt lat="45.34185" lon="6.6295">
        <ele>2107.52</ele>
        <time>2016-07-15T06:30:38Z</time>
      </trkpt>
      <trkpt lat="45.34189" lon="6.62976">
        <ele>2103.57</ele>
        <time>2016-07-15T06:30:52Z</time>
      </trkpt>
      <trkpt lat="45.34188" lon="6.63002">
        <ele>2102.7</ele>
        <time>2016-07-15T06:31:07Z</time>
      </trkpt>
      <trkpt lat="45.34187" lon="6.63028">
        <ele>2094.8</ele>
        <time>2016-07-15T06:31:21Z</time>
      </trkpt>
      <trkpt lat="45.34172" lon="6.63043">
        <ele>2108.53</ele>
        <time>2016-07-15T06:33:55Z</time>
      </trkpt>
      <trkpt lat="45.34155" lon="6.63055">
        <ele>2107.46</ele>
        <time>2016-07-15T06:34:15Z</time>
      </trkpt>
      <trkpt lat="45.34139" lon="6.63068">
        <ele>2112.36</ele>
        <time>2016-07-15T06:34:27Z</time>
      </trkpt>
      <trkpt lat="45.34123" lon="6.6308">
        <ele>2110.57</ele>
        <time>2016-07-15T06:34:43Z</time>
      </trkpt>
      <trkpt lat="45.34105" lon="6.63087">
        <ele>2110.57</ele>
        <time>2016-07-15T06:34:57Z</time>
      </trkpt>
      <trkpt lat="45.34086" lon="6.63093">
        <ele>2112.53</ele>
        <time>2016-07-15T06:35:11Z</time>
      </trkpt>
      <trkpt lat="45.34071" lon="6.63109">
        <ele>2112.49</ele>
        <time>2016-07-15T06:35:27Z</time>
      </trkpt>
      <trkpt lat="45.34055" lon="6.6312">
        <ele>2113.76</ele>
        <time>2016-07-15T06:35:42Z</time>
      </trkpt>
      <trkpt lat="45.34039" lon="6.63135">
        <ele>2117.54</ele>
        <time>2016-07-15T06:35:55Z</time>
      </trkpt>
      <trkpt lat="45.34024" lon="6.63152">
        <ele>2115.74</ele>
        <time>2016-07-15T06:36:07Z</time>
      </trkpt>
      <trkpt lat="45.34005" lon="6.63151">
        <ele>2117.55</ele>
        <time>2016-07-15T06:36:24Z</time>
      </trkpt>
      <trkpt lat="45.33986" lon="6.63152">
        <ele>2120.54</ele>
        <time>2016-07-15T06:36:37Z</time>
      </trkpt>
      <trkpt lat="45.33968" lon="6.63153">
        <ele>2117.16</ele>
        <time>2016-07-15T06:36:53Z</time>
      </trkpt>
      <trkpt lat="45.3395" lon="6.63157">
        <ele>2118.44</ele>
        <time>2016-07-15T06:37:05Z</time>
      </trkpt>
      <trkpt lat="45.33932" lon="6.63157">
        <ele>2115.52</ele>
        <time>2016-07-15T06:37:20Z</time>
      </trkpt>
      <trkpt lat="45.33912" lon="6.63162">
        <ele>2113.76</ele>
        <time>2016-07-15T06:37:44Z</time>
      </trkpt>
      <trkpt lat="45.33894" lon="6.6317">
        <ele>2112.53</ele>
        <time>2016-07-15T06:37:56Z</time>
      </trkpt>
      <trkpt lat="45.33878" lon="6.63182">
        <ele>2111.33</ele>
        <time>2016-07-15T06:38:10Z</time>
      </trkpt>
      <trkpt lat="45.3386" lon="6.63192">
        <ele>2109.37</ele>
        <time>2016-07-15T06:38:27Z</time>
      </trkpt>
      <trkpt lat="45.33846" lon="6.63207">
        <ele>2106.33</ele>
        <time>2016-07-15T06:38:40Z</time>
      </trkpt>
      <trkpt lat="45.33833" lon="6.63227">
        <ele>2113.33</ele>
        <time>2016-07-15T06:38:52Z</time>
      </trkpt>
      <trkpt lat="45.33817" lon="6.63244">
        <ele>2117.47</ele>
        <time>2016-07-15T06:39:07Z</time>
      </trkpt>
      <trkpt lat="45.33799" lon="6.63248">
        <ele>2114.6</ele>
        <time>2016-07-15T06:39:22Z</time>
      </trkpt>
      <trkpt lat="45.3378" lon="6.63249">
        <ele>2117.45</ele>
        <time>2016-07-15T06:39:35Z</time>
      </trkpt>
      <trkpt lat="45.33762" lon="6.63255">
        <ele>2119.73</ele>
        <time>2016-07-15T06:39:56Z</time>
      </trkpt>
      <trkpt lat="45.33743" lon="6.63249">
        <ele>2132.3</ele>
        <time>2016-07-15T06:40:29Z</time>
      </trkpt>
      <trkpt lat="45.33731" lon="6.63229">
        <ele>2122.33</ele>
        <time>2016-07-15T06:41:12Z</time>
      </trkpt>
      <trkpt lat="45.33715" lon="6.63217">
        <ele>2123.73</ele>
        <time>2016-07-15T06:41:29Z</time>
      </trkpt>
      <trkpt lat="45.33697" lon="6.63221">
        <ele>2127.57</ele>
        <time>2016-07-15T06:42:12Z</time>
      </trkpt>
      <trkpt lat="45.33678" lon="6.63213">
        <ele>2131.53</ele>
        <time>2016-07-15T06:43:28Z</time>
      </trkpt>
      <trkpt lat="45.3366" lon="6.63209">
        <ele>2125.97</ele>
        <time>2016-07-15T06:43:42Z</time>
      </trkpt>
      <trkpt lat="45.33642" lon="6.632">
        <ele>2120.5</ele>
        <time>2016-07-15T06:44:06Z</time>
      </trkpt>
      <trkpt lat="45.33628" lon="6.63185">
        <ele>2120.22</ele>
        <time>2016-07-15T06:44:43Z</time>
      </trkpt>
      <trkpt lat="45.3361" lon="6.63175">
        <ele>2122.47</ele>
        <time>2016-07-15T06:44:57Z</time>
      </trkpt>
      <trkpt lat="45.33594" lon="6.6316">
        <ele>2121.53</ele>
        <time>2016-07-15T06:45:13Z</time>
      </trkpt>
      <trkpt lat="45.33576" lon="6.63144">
        <ele>2119.57</ele>
        <time>2016-07-15T06:46:45Z</time>
      </trkpt>
      <trkpt lat="45.33561" lon="6.63128">
        <ele>2112.09</ele>
        <time>2016-07-15T06:46:55Z</time>
      </trkpt>
      <trkpt lat="45.33544" lon="6.63117">
        <ele>2117.08</ele>
        <time>2016-07-15T06:47:06Z</time>
      </trkpt>
      <trkpt lat="45.33527" lon="6.63105">
        <ele>2125.12</ele>
        <time>2016-07-15T06:47:20Z</time>
      </trkpt>
      <trkpt lat="45.33511" lon="6.6309">
        <ele>2123.73</ele>
        <time>2016-07-15T06:47:44Z</time>
      </trkpt>
      <trkpt lat="45.33495" lon="6.63074">
        <ele>2124.51</ele>
        <time>2016-07-15T06:47:58Z</time>
      </trkpt>
      <trkpt lat="45.33478" lon="6.63066">
        <ele>2122.56</ele>
        <time>2016-07-15T06:48:18Z</time>
      </trkpt>
      <trkpt lat="45.33458" lon="6.63053">
        <ele>2125.93</ele>
        <time>2016-07-15T06:49:14Z</time>
      </trkpt>
      <trkpt lat="45.33446" lon="6.63033">
        <ele>2126.76</ele>
        <time>2016-07-15T06:49:24Z</time>
      </trkpt>
      <trkpt lat="45.33434" lon="6.63014">
        <ele>2131.78</ele>
        <time>2016-07-15T06:49:42Z</time>
      </trkpt>
      <trkpt lat="45.33417" lon="6.63002">
        <ele>2133.49</ele>
        <time>2016-07-15T06:50:02Z</time>
      </trkpt>
      <trkpt lat="45.33404" lon="6.62983">
        <ele>2140.54</ele>
        <time>2016-07-15T06:50:32Z</time>
      </trkpt>
      <trkpt lat="45.33388" lon="6.6297">
        <ele>2144.48</ele>
        <time>2016-07-15T06:51:11Z</time>
      </trkpt>
      <trkpt lat="45.3338" lon="6.62947">
        <ele>2143.16</ele>
        <time>2016-07-15T06:51:49Z</time>
      </trkpt>
      <trkpt lat="45.33365" lon="6.62931">
        <ele>2145.37</ele>
        <time>2016-07-15T06:52:13Z</time>
      </trkpt>
      <trkpt lat="45.33346" lon="6.62928">
        <ele>2153.33</ele>
        <time>2016-07-15T06:52:32Z</time>
      </trkpt>
      <trkpt lat="45.3333" lon="6.62911">
        <ele>2151.53</ele>
        <time>2016-07-15T06:53:18Z</time>
      </trkpt>
      <trkpt lat="45.33315" lon="6.62898">
        <ele>2142.37</ele>
        <time>2016-07-15T06:53:27Z</time>
      </trkpt>
      <trkpt lat="45.33299" lon="6.62879">
        <ele>2139.32</ele>
        <time>2016-07-15T06:53:38Z</time>
      </trkpt>
      <trkpt lat="45.33284" lon="6.62863">
        <ele>2144.52</ele>
        <time>2016-07-15T06:53:50Z</time>
      </trkpt>
      <trkpt lat="45.33269" lon="6.62847">
        <ele>2157.51</ele>
        <time>2016-07-15T06:54:08Z</time>
      </trkpt>
      <trkpt lat="45.33252" lon="6.62833">
        <ele>2155.55</ele>
        <time>2016-07-15T06:54:26Z</time>
      </trkpt>
      <trkpt lat="45.33234" lon="6.62833">
        <ele>2182.3</ele>
        <time>2016-07-15T06:55:02Z</time>
      </trkpt>
      <trkpt lat="45.33219" lon="6.62816">
        <ele>2186.52</ele>
        <time>2016-07-15T06:55:30Z</time>
      </trkpt>
      <trkpt lat="45.33205" lon="6.628">
        <ele>2194.69</ele>
        <time>2016-07-15T06:55:55Z</time>
      </trkpt>
      <trkpt lat="45.33197" lon="6.62776">
        <ele>2201.72</ele>
        <time>2016-07-15T06:58:38Z</time>
      </trkpt>
      <trkpt lat="45.33188" lon="6.62753">
        <ele>2201.42</ele>
        <time>2016-07-15T06:58:59Z</time>
      </trkpt>
      <trkpt lat="45.33176" lon="6.62733">
        <ele>2215.33</ele>
        <time>2016-07-15T06:59:55Z</time>
      </trkpt>
      <trkpt lat="45.33159" lon="6.62723">
        <ele>2226.33</ele>
        <time>2016-07-15T07:00:11Z</time>
      </trkpt>
      <trkpt lat="45.33143" lon="6.6271">
        <ele>2227.51</ele>
        <time>2016-07-15T07:00:42Z</time>
      </trkpt>
      <trkpt lat="45.33124" lon="6.62711">
        <ele>2222.73</ele>
        <time>2016-07-15T07:00:55Z</time>
      </trkpt>
      <trkpt lat="45.33106" lon="6.62705">
        <ele>2224.36</ele>
        <time>2016-07-15T07:01:13Z</time>
      </trkpt>
      <trkpt lat="45.3309" lon="6.62691">
        <ele>2220.6</ele>
        <time>2016-07-15T07:01:30Z</time>
      </trkpt>
      <trkpt lat="45.33072" lon="6.62687">
        <ele>2216.12</ele>
        <time>2016-07-15T07:01:49Z</time>
      </trkpt>
      <trkpt lat="45.33054" lon="6.62679">
        <ele>2209.57</ele>
        <time>2016-07-15T07:02:11Z</time>
      </trkpt>
      <trkpt lat="45.33036" lon="6.62678">
        <ele>2213.37</ele>
        <time>2016-07-15T07:02:33Z</time>
      </trkpt>
      <trkpt lat="45.33018" lon="6.62679">
        <ele>2216.49</ele>
        <time>2016-07-15T07:02:53Z</time>
      </trkpt>
      <trkpt lat="45.33001" lon="6.62668">
        <ele>2215.33</ele>
        <time>2016-07-15T07:03:17Z</time>
      </trkpt>
      <trkpt lat="45.32984" lon="6.62659">
        <ele>2216.68</ele>
        <time>2016-07-15T07:03:44Z</time>
      </trkpt>
      <trkpt lat="45.3297" lon="6.62642">
        <ele>2223.58</ele>
        <time>2016-07-15T07:07:25Z</time>
      </trkpt>
      <trkpt lat="45.3296" lon="6.62621">
        <ele>2216.31</ele>
        <time>2016-07-15T07:07:48Z</time>
      </trkpt>
      <trkpt lat="45.32949" lon="6.62598">
        <ele>2214.68</ele>
        <time>2016-07-15T07:08:11Z</time>
      </trkpt>
      <trkpt lat="45.32935" lon="6.6258">
        <ele>2219.12</ele>
        <time>2016-07-15T07:08:30Z</time>
      </trkpt>
      <trkpt lat="45.32921" lon="6.62559">
        <ele>2223.74</ele>
        <time>2016-07-15T07:09:06Z</time>
      </trkpt>
      <trkpt lat="45.3291" lon="6.62538">
        <ele>2221.48</ele>
        <time>2016-07-15T07:09:18Z</time>
      </trkpt>
      <trkpt lat="45.32902" lon="6.62513">
        <ele>2221.73</ele>
        <time>2016-07-15T07:09:35Z</time>
      </trkpt>
      <trkpt lat="45.32895" lon="6.62489">
        <ele>2213.54</ele>
        <time>2016-07-15T07:10:08Z</time>
      </trkpt>
      <trkpt lat="45.3288" lon="6.62474">
        <ele>2218.57</ele>
        <time>2016-07-15T07:10:25Z</time>
      </trkpt>
      <trkpt lat="45.3287" lon="6.62451">
        <ele>2230.54</ele>
        <time>2016-07-15T07:10:46Z</time>
      </trkpt>
      <trkpt lat="45.32863" lon="6.62427">
        <ele>2229.93</ele>
        <time>2016-07-15T07:11:11Z</time>
      </trkpt>
      <trkpt lat="45.3285" lon="6.62409">
        <ele>2226.78</ele>
        <time>2016-07-15T07:11:28Z</time>
      </trkpt>
      <trkpt lat="45.32834" lon="6.62395">
        <ele>2212.94</ele>
        <time>2016-07-15T07:11:45Z</time>
      </trkpt>
      <trkpt lat="45.32816" lon="6.62387">
        <ele>2208.4</ele>
        <time>2016-07-15T07:12:02Z</time>
      </trkpt>
      <trkpt lat="45.32799" lon="6.62378">
        <ele>2211.69</ele>
        <time>2016-07-15T07:12:19Z</time>
      </trkpt>
      <trkpt lat="45.32781" lon="6.62383">
        <ele>2242.53</ele>
        <time>2016-07-15T07:12:57Z</time>
      </trkpt>
      <trkpt lat="45.3277" lon="6.62403">
        <ele>2256.32</ele>
        <time>2016-07-15T07:13:49Z</time>
      </trkpt>
      <trkpt lat="45.32765" lon="6.6243">
        <ele>2257.37</ele>
        <time>2016-07-15T07:14:18Z</time>
      </trkpt>
      <trkpt lat="45.32758" lon="6.62455">
        <ele>2257.49</ele>
        <time>2016-07-15T07:14:36Z</time>
      </trkpt>
      <trkpt lat="45.32746" lon="6.62475">
        <ele>2258.53</ele>
        <time>2016-07-15T07:14:53Z</time>
      </trkpt>
      <trkpt lat="45.32733" lon="6.62495">
        <ele>2260.53</ele>
        <time>2016-07-15T07:15:08Z</time>
      </trkpt>
      <trkpt lat="45.32715" lon="6.62499">
        <ele>2264.28</ele>
        <time>2016-07-15T07:15:35Z</time>
      </trkpt>
      <trkpt lat="45.32697" lon="6.625">
        <ele>2269.53</ele>
        <time>2016-07-15T07:16:06Z</time>
      </trkpt>
      <trkpt lat="45.3268" lon="6.62496">
        <ele>2273.53</ele>
        <time>2016-07-15T07:17:16Z</time>
      </trkpt>
      <trkpt lat="45.32661" lon="6.62493">
        <ele>2274.53</ele>
        <time>2016-07-15T07:18:50Z</time>
      </trkpt>
      <trkpt lat="45.32648" lon="6.62473">
        <ele>2281.33</ele>
        <time>2016-07-15T07:19:26Z</time>
      </trkpt>
      <trkpt lat="45.32633" lon="6.62458">
        <ele>2290.45</ele>
        <time>2016-07-15T07:21:40Z</time>
      </trkpt>
      <trkpt lat="45.3262" lon="6.6244">
        <ele>2292.93</ele>
        <time>2016-07-15T07:22:00Z</time>
      </trkpt>
      <trkpt lat="45.32603" lon="6.62432">
        <ele>2297.73</ele>
        <time>2016-07-15T07:23:24Z</time>
      </trkpt>
      <trkpt lat="45.32584" lon="6.62429">
        <ele>2298.58</ele>
        <time>2016-07-15T07:23:42Z</time>
      </trkpt>
      <trkpt lat="45.32567" lon="6.6242">
        <ele>2294.34</ele>
        <time>2016-07-15T07:23:59Z</time>
      </trkpt>
      <trkpt lat="45.32549" lon="6.62418">
        <ele>2291.5</ele>
        <time>2016-07-15T07:24:17Z</time>
      </trkpt>
      <trkpt lat="45.3253" lon="6.62412">
        <ele>2294.32</ele>
        <time>2016-07-15T07:24:35Z</time>
      </trkpt>
      <trkpt lat="45.32512" lon="6.62413">
        <ele>2309.73</ele>
        <time>2016-07-15T07:25:54Z</time>
      </trkpt>
      <trkpt lat="45.32494" lon="6.62419">
        <ele>2316.28</ele>
        <time>2016-07-15T07:29:13Z</time>
      </trkpt>
      <trkpt lat="45.32476" lon="6.6241">
        <ele>2319.56</ele>
        <time>2016-07-15T07:29:36Z</time>
      </trkpt>
      <trkpt lat="45.32458" lon="6.62403">
        <ele>2324.34</ele>
        <time>2016-07-15T07:30:06Z</time>
      </trkpt>
      <trkpt lat="45.3244" lon="6.62409">
        <ele>2328.52</ele>
        <time>2016-07-15T07:30:22Z</time>
      </trkpt>
      <trkpt lat="45.32422" lon="6.62404">
        <ele>2326.72</ele>
        <time>2016-07-15T07:30:41Z</time>
      </trkpt>
      <trkpt lat="45.32403" lon="6.62403">
        <ele>2323.49</ele>
        <time>2016-07-15T07:30:59Z</time>
      </trkpt>
      <trkpt lat="45.32388" lon="6.62389">
        <ele>2325.52</ele>
        <time>2016-07-15T07:31:21Z</time>
      </trkpt>
      <trkpt lat="45.3237" lon="6.62392">
        <ele>2326.68</ele>
        <time>2016-07-15T07:31:45Z</time>
      </trkpt>
      <trkpt lat="45.32354" lon="6.62379">
        <ele>2343.3</ele>
        <time>2016-07-15T07:32:38Z</time>
      </trkpt>
      <trkpt lat="45.32348" lon="6.62354">
        <ele>2344.53</ele>
        <time>2016-07-15T07:32:57Z</time>
      </trkpt>
      <trkpt lat="45.32332" lon="6.62344">
        <ele>2346.52</ele>
        <time>2016-07-15T07:33:36Z</time>
      </trkpt>
      <trkpt lat="45.32314" lon="6.62349">
        <ele>2354.33</ele>
        <time>2016-07-15T07:34:07Z</time>
      </trkpt>
      <trkpt lat="45.32307" lon="6.62324">
        <ele>2358.52</ele>
        <time>2016-07-15T07:34:37Z</time>
      </trkpt>
      <trkpt lat="45.32292" lon="6.62341">
        <ele>2364.54</ele>
        <time>2016-07-15T07:35:07Z</time>
      </trkpt>
      <trkpt lat="45.32277" lon="6.62357">
        <ele>2368.48</ele>
        <time>2016-07-15T07:35:28Z</time>
      </trkpt>
      <trkpt lat="45.32259" lon="6.62351">
        <ele>2372.7</ele>
        <time>2016-07-15T07:37:08Z</time>
      </trkpt>
      <trkpt lat="45.32243" lon="6.62338">
        <ele>2376.38</ele>
        <time>2016-07-15T07:37:41Z</time>
      </trkpt>
      <trkpt lat="45.32225" lon="6.62346">
        <ele>2380.48</ele>
        <time>2016-07-15T07:38:04Z</time>
      </trkpt>
      <trkpt lat="45.32209" lon="6.62364">
        <ele>2388.56</ele>
        <time>2016-07-15T07:40:38Z</time>
      </trkpt>
      <trkpt lat="45.32192" lon="6.62375">
        <ele>2395.56</ele>
        <time>2016-07-15T07:40:59Z</time>
      </trkpt>
      <trkpt lat="45.32171" lon="6.62389">
        <ele>2387.89</ele>
        <time>2016-07-15T07:41:54Z</time>
      </trkpt>
      <trkpt lat="45.32155" lon="6.624">
        <ele>2389.29</ele>
        <time>2016-07-15T07:42:04Z</time>
      </trkpt>
      <trkpt lat="45.32137" lon="6.62405">
        <ele>2390.45</ele>
        <time>2016-07-15T07:42:20Z</time>
      </trkpt>
      <trkpt lat="45.3213" lon="6.62404">
        <ele>2397.53</ele>
        <time>2016-07-15T07:43:11Z</time>
      </trkpt>
      <trkpt lat="45.3213" lon="6.62402">
        <ele>2398.53</ele>
        <time>2016-07-15T07:44:04Z</time>
      </trkpt>
      <trkpt lat="45.32112" lon="6.62404">
        <ele>2400.53</ele>
        <time>2016-07-15T07:44:48Z</time>
      </trkpt>
      <trkpt lat="45.32095" lon="6.62414">
        <ele>2405.71</ele>
        <time>2016-07-15T07:45:13Z</time>
      </trkpt>
      <trkpt lat="45.32079" lon="6.62427">
        <ele>2408.37</ele>
        <time>2016-07-15T07:45:32Z</time>
      </trkpt>
      <trkpt lat="45.32065" lon="6.62443">
        <ele>2409.16</ele>
        <time>2016-07-15T07:45:52Z</time>
      </trkpt>
      <trkpt lat="45.32047" lon="6.62451">
        <ele>2409.53</ele>
        <time>2016-07-15T07:46:12Z</time>
      </trkpt>
      <trkpt lat="45.32029" lon="6.62455">
        <ele>2412.33</ele>
        <time>2016-07-15T07:46:31Z</time>
      </trkpt>
      <trkpt lat="45.3201" lon="6.62448">
        <ele>2417.49</ele>
        <time>2016-07-15T07:46:54Z</time>
      </trkpt>
      <trkpt lat="45.31993" lon="6.62439">
        <ele>2420.53</ele>
        <time>2016-07-15T07:47:18Z</time>
      </trkpt>
      <trkpt lat="45.31976" lon="6.6243">
        <ele>2422.62</ele>
        <time>2016-07-15T07:47:42Z</time>
      </trkpt>
      <trkpt lat="45.31958" lon="6.62423">
        <ele>2429.33</ele>
        <time>2016-07-15T07:48:10Z</time>
      </trkpt>
      <trkpt lat="45.31944" lon="6.62408">
        <ele>2435.49</ele>
        <time>2016-07-15T07:48:36Z</time>
      </trkpt>
      <trkpt lat="45.31926" lon="6.62403">
        <ele>2435.92</ele>
        <time>2016-07-15T07:48:59Z</time>
      </trkpt>
      <trkpt lat="45.31914" lon="6.62425">
        <ele>2438.73</ele>
        <time>2016-07-15T07:50:54Z</time>
      </trkpt>
      <trkpt lat="45.31896" lon="6.62432">
        <ele>2445.53</ele>
        <time>2016-07-15T07:52:16Z</time>
      </trkpt>
      <trkpt lat="45.31887" lon="6.62454">
        <ele>2442.79</ele>
        <time>2016-07-15T07:54:19Z</time>
      </trkpt>
      <trkpt lat="45.31892" lon="6.62479">
        <ele>2442.76</ele>
        <time>2016-07-15T07:54:50Z</time>
      </trkpt>
      <trkpt lat="45.31909" lon="6.62491">
        <ele>2445.13</ele>
        <time>2016-07-15T07:55:22Z</time>
      </trkpt>
      <trkpt lat="45.31915" lon="6.62516">
        <ele>2440.61</ele>
        <time>2016-07-15T07:55:42Z</time>
      </trkpt>
      <trkpt lat="45.31913" lon="6.62542">
        <ele>2439.57</ele>
        <time>2016-07-15T07:55:59Z</time>
      </trkpt>
      <trkpt lat="45.31911" lon="6.62568">
        <ele>2431.8</ele>
        <time>2016-07-15T07:56:16Z</time>
      </trkpt>
      <trkpt lat="45.31904" lon="6.62592">
        <ele>2432.41</ele>
        <time>2016-07-15T07:56:38Z</time>
      </trkpt>
      <trkpt lat="45.31895" lon="6.62615">
        <ele>2436.51</ele>
        <time>2016-07-15T07:56:56Z</time>
      </trkpt>
      <trkpt lat="45.31885" lon="6.62639">
        <ele>2437.53</ele>
        <time>2016-07-15T07:57:37Z</time>
      </trkpt>
      <trkpt lat="45.31873" lon="6.62665">
        <ele>2434.33</ele>
        <time>2016-07-15T07:57:39Z</time>
      </trkpt>
      <trkpt lat="45.31861" lon="6.62684">
        <ele>2429.87</ele>
        <time>2016-07-15T07:57:57Z</time>
      </trkpt>
      <trkpt lat="45.31841" lon="6.62697">
        <ele>2434.33</ele>
        <time>2016-07-15T07:58:16Z</time>
      </trkpt>
      <trkpt lat="45.31856" lon="6.62719">
        <ele>2432.42</ele>
        <time>2016-07-15T07:58:29Z</time>
      </trkpt>
      <trkpt lat="45.31842" lon="6.62737">
        <ele>2433.33</ele>
        <time>2016-07-15T07:58:47Z</time>
      </trkpt>
      <trkpt lat="45.31831" lon="6.62759">
        <ele>2439.17</ele>
        <time>2016-07-15T07:59:18Z</time>
      </trkpt>
      <trkpt lat="45.31838" lon="6.62795">
        <ele>2446.53</ele>
        <time>2016-07-15T08:00:01Z</time>
      </trkpt>
      <trkpt lat="45.31837" lon="6.62822">
        <ele>2462.17</ele>
        <time>2016-07-15T08:00:40Z</time>
      </trkpt>
      <trkpt lat="45.31852" lon="6.62839">
        <ele>2468.93</ele>
        <time>2016-07-15T08:02:53Z</time>
      </trkpt>
      <trkpt lat="45.31848" lon="6.62873">
        <ele>2469.53</ele>
        <time>2016-07-15T08:02:59Z</time>
      </trkpt>
      <trkpt lat="45.31832" lon="6.62891">
        <ele>2463.78</ele>
        <time>2016-07-15T08:03:11Z</time>
      </trkpt>
      <trkpt lat="45.31839" lon="6.62917">
        <ele>2465.82</ele>
        <time>2016-07-15T08:03:48Z</time>
      </trkpt>
      <trkpt lat="45.31829" lon="6.62942">
        <ele>2461.04</ele>
        <time>2016-07-15T08:04:00Z</time>
      </trkpt>
      <trkpt lat="45.31822" lon="6.62968">
        <ele>2463.09</ele>
        <time>2016-07-15T08:04:29Z</time>
      </trkpt>
      <trkpt lat="45.31811" lon="6.62989">
        <ele>2459.74</ele>
        <time>2016-07-15T08:04:40Z</time>
      </trkpt>
      <trkpt lat="45.31793" lon="6.62996">
        <ele>2462.57</ele>
        <time>2016-07-15T08:04:49Z</time>
      </trkpt>
      <trkpt lat="45.31774" lon="6.63007">
        <ele>2467.52</ele>
        <time>2016-07-15T08:05:38Z</time>
      </trkpt>
      <trkpt lat="45.31768" lon="6.63033">
        <ele>2471.12</ele>
        <time>2016-07-15T08:05:45Z</time>
      </trkpt>
      <trkpt lat="45.31777" lon="6.63059">
        <ele>2477.72</ele>
        <time>2016-07-15T08:06:16Z</time>
      </trkpt>
      <trkpt lat="45.31784" lon="6.63084">
        <ele>2479.78</ele>
        <time>2016-07-15T08:06:42Z</time>
      </trkpt>
      <trkpt lat="45.31797" lon="6.63103">
        <ele>2488.37</ele>
        <time>2016-07-15T08:07:06Z</time>
      </trkpt>
      <trkpt lat="45.31805" lon="6.63126">
        <ele>2487.58</ele>
        <time>2016-07-15T08:07:32Z</time>
      </trkpt>
      <trkpt lat="45.31817" lon="6.63146">
        <ele>2498.09</ele>
        <time>2016-07-15T08:07:57Z</time>
      </trkpt>
      <trkpt lat="45.31815" lon="6.63172">
        <ele>2502.66</ele>
        <time>2016-07-15T08:08:30Z</time>
      </trkpt>
      <trkpt lat="45.31829" lon="6.63154">
        <ele>2499.53</ele>
        <time>2016-07-15T08:08:53Z</time>
      </trkpt>
      <trkpt lat="45.31847" lon="6.63159">
        <ele>2504.69</ele>
        <time>2016-07-15T08:09:33Z</time>
      </trkpt>
      <trkpt lat="45.31858" lon="6.63179">
        <ele>2507.49</ele>
        <time>2016-07-15T08:09:43Z</time>
      </trkpt>
      <trkpt lat="45.31845" lon="6.63198">
        <ele>2500.74</ele>
        <time>2016-07-15T08:09:58Z</time>
      </trkpt>
      <trkpt lat="45.31847" lon="6.63226">
        <ele>2500.68</ele>
        <time>2016-07-15T08:10:02Z</time>
      </trkpt>
      <trkpt lat="45.31856" lon="6.63248">
        <ele>2497.5</ele>
        <time>2016-07-15T08:10:12Z</time>
      </trkpt>
      <trkpt lat="45.31838" lon="6.63248">
        <ele>2495.33</ele>
        <time>2016-07-15T08:11:17Z</time>
      </trkpt>
      <trkpt lat="45.3182" lon="6.63254">
        <ele>2491.33</ele>
        <time>2016-07-15T08:11:30Z</time>
      </trkpt>
      <trkpt lat="45.31833" lon="6.63234">
        <ele>2490.38</ele>
        <time>2016-07-15T08:13:11Z</time>
      </trkpt>
      <trkpt lat="45.3184" lon="6.63207">
        <ele>2502.29</ele>
        <time>2016-07-15T08:13:45Z</time>
      </trkpt>
      <trkpt lat="45.31849" lon="6.63185">
        <ele>2508.53</ele>
        <time>2016-07-15T08:14:05Z</time>
      </trkpt>
      <trkpt lat="45.31866" lon="6.63181">
        <ele>2508.53</ele>
        <time>2016-07-15T08:14:33Z</time>
      </trkpt>
      <trkpt lat="45.31884" lon="6.63173">
        <ele>2521.52</ele>
        <time>2016-07-15T08:15:23Z</time>
      </trkpt>
      <trkpt lat="45.31896" lon="6.63154">
        <ele>2519.5</ele>
        <time>2016-07-15T08:16:07Z</time>
      </trkpt>
      <trkpt lat="45.31914" lon="6.63162">
        <ele>2527.14</ele>
        <time>2016-07-15T08:16:30Z</time>
      </trkpt>
      <trkpt lat="45.3193" lon="6.63173">
        <ele>2527.53</ele>
        <time>2016-07-15T08:17:52Z</time>
      </trkpt>
      <trkpt lat="45.31931" lon="6.63199">
        <ele>2533.33</ele>
        <time>2016-07-15T08:18:35Z</time>
      </trkpt>
      <trkpt lat="45.31927" lon="6.63226">
        <ele>2534.53</ele>
        <time>2016-07-15T08:19:10Z</time>
      </trkpt>
      <trkpt lat="45.31926" lon="6.63252">
        <ele>2537.68</ele>
        <time>2016-07-15T08:19:31Z</time>
      </trkpt>
      <trkpt lat="45.31923" lon="6.63279">
        <ele>2534.35</ele>
        <time>2016-07-15T08:20:39Z</time>
      </trkpt>
      <trkpt lat="45.31927" lon="6.63304">
        <ele>2538.52</ele>
        <time>2016-07-15T08:21:13Z</time>
      </trkpt>
      <trkpt lat="45.31931" lon="6.63329">
        <ele>2545.3</ele>
        <time>2016-07-15T08:21:52Z</time>
      </trkpt>
      <trkpt lat="45.31917" lon="6.63347">
        <ele>2543.52</ele>
        <time>2016-07-15T08:22:00Z</time>
      </trkpt>
      <trkpt lat="45.31903" lon="6.63364">
        <ele>2558.13</ele>
        <time>2016-07-15T08:23:00Z</time>
      </trkpt>
      <trkpt lat="45.31898" lon="6.63389">
        <ele>2575.45</ele>
        <time>2016-07-15T08:23:35Z</time>
      </trkpt>
      <trkpt lat="45.319" lon="6.63417">
        <ele>2574.04</ele>
        <time>2016-07-15T08:24:27Z</time>
      </trkpt>
      <trkpt lat="45.3189" lon="6.6344">
        <ele>2571.3</ele>
        <time>2016-07-15T08:25:09Z</time>
      </trkpt>
      <trkpt lat="45.31894" lon="6.63465">
        <ele>2590.14</ele>
        <time>2016-07-15T08:27:02Z</time>
      </trkpt>
      <trkpt lat="45.3191" lon="6.63481">
        <ele>2594.55</ele>
        <time>2016-07-15T08:27:39Z</time>
      </trkpt>
      <trkpt lat="45.31923" lon="6.63501">
        <ele>2607.5</ele>
        <time>2016-07-15T08:29:03Z</time>
      </trkpt>
      <trkpt lat="45.31923" lon="6.63528">
        <ele>2612.33</ele>
        <time>2016-07-15T08:29:37Z</time>
      </trkpt>
      <trkpt lat="45.31924" lon="6.63502">
        <ele>2608.78</ele>
        <time>2016-07-15T08:43:18Z</time>
      </trkpt>
      <trkpt lat="45.31915" lon="6.63479">
        <ele>2611.57</ele>
        <time>2016-07-15T08:44:06Z</time>
      </trkpt>
      <trkpt lat="45.31902" lon="6.63461">
        <ele>2609.58</ele>
        <time>2016-07-15T08:44:58Z</time>
      </trkpt>
      <trkpt lat="45.31889" lon="6.63443">
        <ele>2596.72</ele>
        <time>2016-07-15T08:45:58Z</time>
      </trkpt>
      <trkpt lat="45.31892" lon="6.63417">
        <ele>2588.53</ele>
        <time>2016-07-15T08:47:03Z</time>
      </trkpt>
      <trkpt lat="45.31897" lon="6.63392">
        <ele>2584.52</ele>
        <time>2016-07-15T08:47:39Z</time>
      </trkpt>
      <trkpt lat="45.31901" lon="6.63367">
        <ele>2573.33</ele>
        <time>2016-07-15T08:48:28Z</time>
      </trkpt>
      <trkpt lat="45.31903" lon="6.63339">
        <ele>2567.53</ele>
        <time>2016-07-15T08:48:52Z</time>
      </trkpt>
      <trkpt lat="45.31918" lon="6.63325">
        <ele>2566.46</ele>
        <time>2016-07-15T08:49:34Z</time>
      </trkpt>
      <trkpt lat="45.31927" lon="6.63302">
        <ele>2557.5</ele>
        <time>2016-07-15T08:50:51Z</time>
      </trkpt>
      <trkpt lat="45.31919" lon="6.63278">
        <ele>2556.57</ele>
        <time>2016-07-15T08:51:43Z</time>
      </trkpt>
      <trkpt lat="45.31919" lon="6.63252">
        <ele>2552.53</ele>
        <time>2016-07-15T08:52:06Z</time>
      </trkpt>
      <trkpt lat="45.3192" lon="6.63225">
        <ele>2545.48</ele>
        <time>2016-07-15T08:52:31Z</time>
      </trkpt>
      <trkpt lat="45.3193" lon="6.63202">
        <ele>2546.53</ele>
        <time>2016-07-15T08:53:17Z</time>
      </trkpt>
      <trkpt lat="45.31927" lon="6.63176">
        <ele>2539.57</ele>
        <time>2016-07-15T08:54:00Z</time>
      </trkpt>
      <trkpt lat="45.31912" lon="6.63161">
        <ele>2525.77</ele>
        <time>2016-07-15T08:54:41Z</time>
      </trkpt>
      <trkpt lat="45.31894" lon="6.63156">
        <ele>2516.77</ele>
        <time>2016-07-15T08:55:03Z</time>
      </trkpt>
      <trkpt lat="45.31889" lon="6.63182">
        <ele>2517.53</ele>
        <time>2016-07-15T08:55:34Z</time>
      </trkpt>
      <trkpt lat="45.3187" lon="6.63184">
        <ele>2505.53</ele>
        <time>2016-07-15T08:56:19Z</time>
      </trkpt>
      <trkpt lat="45.31853" lon="6.63181">
        <ele>2504.46</ele>
        <time>2016-07-15T08:56:49Z</time>
      </trkpt>
      <trkpt lat="45.31842" lon="6.63161">
        <ele>2500.73</ele>
        <time>2016-07-15T08:57:07Z</time>
      </trkpt>
      <trkpt lat="45.31824" lon="6.63161">
        <ele>2502.73</ele>
        <time>2016-07-15T08:57:30Z</time>
      </trkpt>
      <trkpt lat="45.31809" lon="6.63176">
        <ele>2505.52</ele>
        <time>2016-07-15T08:57:47Z</time>
      </trkpt>
      <trkpt lat="45.31804" lon="6.63151">
        <ele>2497.72</ele>
        <time>2016-07-15T08:58:10Z</time>
      </trkpt>
      <trkpt lat="45.31798" lon="6.63125">
        <ele>2491.53</ele>
        <time>2016-07-15T08:58:29Z</time>
      </trkpt>
      <trkpt lat="45.31788" lon="6.63103">
        <ele>2483.58</ele>
        <time>2016-07-15T08:58:49Z</time>
      </trkpt>
      <trkpt lat="45.31779" lon="6.63081">
        <ele>2477.37</ele>
        <time>2016-07-15T08:59:13Z</time>
      </trkpt>
      <trkpt lat="45.31768" lon="6.63058">
        <ele>2474.73</ele>
        <time>2016-07-15T09:12:34Z</time>
      </trkpt>
      <trkpt lat="45.31761" lon="6.63034">
        <ele>2471.32</ele>
        <time>2016-07-15T09:13:00Z</time>
      </trkpt>
      <trkpt lat="45.31773" lon="6.63014">
        <ele>2468.53</ele>
        <time>2016-07-15T09:13:18Z</time>
      </trkpt>
      <trkpt lat="45.31784" lon="6.62992">
        <ele>2466.74</ele>
        <time>2016-07-15T09:13:36Z</time>
      </trkpt>
      <trkpt lat="45.31798" lon="6.62975">
        <ele>2462.73</ele>
        <time>2016-07-15T09:13:52Z</time>
      </trkpt>
      <trkpt lat="45.31813" lon="6.62959">
        <ele>2457.53</ele>
        <time>2016-07-15T09:14:09Z</time>
      </trkpt>
      <trkpt lat="45.31824" lon="6.62938">
        <ele>2456.49</ele>
        <time>2016-07-15T09:14:25Z</time>
      </trkpt>
      <trkpt lat="45.31821" lon="6.62912">
        <ele>2457.3</ele>
        <time>2016-07-15T09:14:41Z</time>
      </trkpt>
      <trkpt lat="45.31828" lon="6.62887">
        <ele>2457.32</ele>
        <time>2016-07-15T09:14:58Z</time>
      </trkpt>
      <trkpt lat="45.31838" lon="6.62863">
        <ele>2455.28</ele>
        <time>2016-07-15T09:15:16Z</time>
      </trkpt>
      <trkpt lat="45.31847" lon="6.62839">
        <ele>2456.33</ele>
        <time>2016-07-15T09:15:39Z</time>
      </trkpt>
      <trkpt lat="45.31837" lon="6.62816">
        <ele>2455.13</ele>
        <time>2016-07-15T09:16:01Z</time>
      </trkpt>
      <trkpt lat="45.31835" lon="6.6279">
        <ele>2450.52</ele>
        <time>2016-07-15T09:16:20Z</time>
      </trkpt>
      <trkpt lat="45.31842" lon="6.62767">
        <ele>2450.54</ele>
        <time>2016-07-15T09:16:36Z</time>
      </trkpt>
      <trkpt lat="45.31848" lon="6.62741">
        <ele>2450.53</ele>
        <time>2016-07-15T09:17:06Z</time>
      </trkpt>
      <trkpt lat="45.31851" lon="6.62715">
        <ele>2442.77</ele>
        <time>2016-07-15T09:17:23Z</time>
      </trkpt>
      <trkpt lat="45.31864" lon="6.62696">
        <ele>2439.68</ele>
        <time>2016-07-15T09:17:38Z</time>
      </trkpt>
      <trkpt lat="45.31875" lon="6.62675">
        <ele>2439.54</ele>
        <time>2016-07-15T09:17:54Z</time>
      </trkpt>
      <trkpt lat="45.31876" lon="6.62649">
        <ele>2436.56</ele>
        <time>2016-07-15T09:18:08Z</time>
      </trkpt>
      <trkpt lat="45.31886" lon="6.62628">
        <ele>2433.37</ele>
        <time>2016-07-15T09:18:23Z</time>
      </trkpt>
      <trkpt lat="45.31899" lon="6.62609">
        <ele>2430.5</ele>
        <time>2016-07-15T09:18:37Z</time>
      </trkpt>
      <trkpt lat="45.31908" lon="6.62586">
        <ele>2438.47</ele>
        <time>2016-07-15T09:18:59Z</time>
      </trkpt>
      <trkpt lat="45.31911" lon="6.6256">
        <ele>2443.29</ele>
        <time>2016-07-15T09:19:14Z</time>
      </trkpt>
      <trkpt lat="45.3191" lon="6.62535">
        <ele>2441.56</ele>
        <time>2016-07-15T09:19:31Z</time>
      </trkpt>
      <trkpt lat="45.31912" lon="6.62509">
        <ele>2437.92</ele>
        <time>2016-07-15T09:20:59Z</time>
      </trkpt>
      <trkpt lat="45.31909" lon="6.62483">
        <ele>2437.93</ele>
        <time>2016-07-15T09:21:43Z</time>
      </trkpt>
      <trkpt lat="45.31913" lon="6.62458">
        <ele>2434.77</ele>
        <time>2016-07-15T09:22:17Z</time>
      </trkpt>
      <trkpt lat="45.31909" lon="6.62446">
        <ele>2440.53</ele>
        <time>2016-07-15T09:22:51Z</time>
      </trkpt>
      <trkpt lat="45.31909" lon="6.62446">
        <ele>2441.53</ele>
        <time>2016-07-15T09:23:40Z</time>
      </trkpt>
      <trkpt lat="45.31919" lon="6.62422">
        <ele>2434.33</ele>
        <time>2016-07-15T09:24:10Z</time>
      </trkpt>
      <trkpt lat="45.31934" lon="6.62406">
        <ele>2438.77</ele>
        <time>2016-07-15T09:24:55Z</time>
      </trkpt>
      <trkpt lat="45.31952" lon="6.62414">
        <ele>2437.69</ele>
        <time>2016-07-15T09:25:12Z</time>
      </trkpt>
      <trkpt lat="45.31969" lon="6.62425">
        <ele>2431.74</ele>
        <time>2016-07-15T09:26:35Z</time>
      </trkpt>
      <trkpt lat="45.31987" lon="6.62434">
        <ele>2427.73</ele>
        <time>2016-07-15T09:26:52Z</time>
      </trkpt>
      <trkpt lat="45.32004" lon="6.62444">
        <ele>2421.74</ele>
        <time>2016-07-15T09:27:09Z</time>
      </trkpt>
      <trkpt lat="45.32022" lon="6.62452">
        <ele>2413.56</ele>
        <time>2016-07-15T09:27:28Z</time>
      </trkpt>
      <trkpt lat="45.32041" lon="6.6245">
        <ele>2407.69</ele>
        <time>2016-07-15T09:27:47Z</time>
      </trkpt>
      <trkpt lat="45.32059" lon="6.62443">
        <ele>2408.73</ele>
        <time>2016-07-15T09:28:05Z</time>
      </trkpt>
      <trkpt lat="45.32076" lon="6.62432">
        <ele>2409.76</ele>
        <time>2016-07-15T09:28:22Z</time>
      </trkpt>
      <trkpt lat="45.32091" lon="6.62418">
        <ele>2411.53</ele>
        <time>2016-07-15T09:28:49Z</time>
      </trkpt>
      <trkpt lat="45.32108" lon="6.6241">
        <ele>2405.54</ele>
        <time>2016-07-15T09:29:15Z</time>
      </trkpt>
      <trkpt lat="45.32127" lon="6.62405">
        <ele>2402.13</ele>
        <time>2016-07-15T09:29:39Z</time>
      </trkpt>
      <trkpt lat="45.32145" lon="6.62398">
        <ele>2399.52</ele>
        <time>2016-07-15T09:29:52Z</time>
      </trkpt>
      <trkpt lat="45.32163" lon="6.62389">
        <ele>2397.54</ele>
        <time>2016-07-15T09:30:09Z</time>
      </trkpt>
      <trkpt lat="45.3218" lon="6.62384">
        <ele>2391.57</ele>
        <time>2016-07-15T09:30:25Z</time>
      </trkpt>
      <trkpt lat="45.32197" lon="6.62373">
        <ele>2393.52</ele>
        <time>2016-07-15T09:30:40Z</time>
      </trkpt>
      <trkpt lat="45.32214" lon="6.62362">
        <ele>2389.54</ele>
        <time>2016-07-15T09:30:57Z</time>
      </trkpt>
      <trkpt lat="45.32231" lon="6.62351">
        <ele>2382.57</ele>
        <time>2016-07-15T09:31:13Z</time>
      </trkpt>
      <trkpt lat="45.32248" lon="6.62342">
        <ele>2381.33</ele>
        <time>2016-07-15T09:31:36Z</time>
      </trkpt>
      <trkpt lat="45.32263" lon="6.62358">
        <ele>2381.72</ele>
        <time>2016-07-15T09:31:57Z</time>
      </trkpt>
      <trkpt lat="45.32281" lon="6.62357">
        <ele>2373.93</ele>
        <time>2016-07-15T09:32:22Z</time>
      </trkpt>
      <trkpt lat="45.32296" lon="6.62342">
        <ele>2373.54</ele>
        <time>2016-07-15T09:33:19Z</time>
      </trkpt>
      <trkpt lat="45.32315" lon="6.62346">
        <ele>2368.53</ele>
        <time>2016-07-15T09:33:48Z</time>
      </trkpt>
      <trkpt lat="45.32333" lon="6.62344">
        <ele>2359.54</ele>
        <time>2016-07-15T09:34:26Z</time>
      </trkpt>
      <trkpt lat="45.32346" lon="6.62362">
        <ele>2347.74</ele>
        <time>2016-07-15T09:35:07Z</time>
      </trkpt>
      <trkpt lat="45.32353" lon="6.62386">
        <ele>2341.53</ele>
        <time>2016-07-15T09:35:27Z</time>
      </trkpt>
      <trkpt lat="45.32371" lon="6.62391">
        <ele>2339.33</ele>
        <time>2016-07-15T09:36:16Z</time>
      </trkpt>
      <trkpt lat="45.3239" lon="6.62395">
        <ele>2334.73</ele>
        <time>2016-07-15T09:36:45Z</time>
      </trkpt>
      <trkpt lat="45.32409" lon="6.624">
        <ele>2331.36</ele>
        <time>2016-07-15T09:37:06Z</time>
      </trkpt>
      <trkpt lat="45.32428" lon="6.62402">
        <ele>2335.89</ele>
        <time>2016-07-15T09:37:20Z</time>
      </trkpt>
      <trkpt lat="45.32445" lon="6.62409">
        <ele>2330.69</ele>
        <time>2016-07-15T09:37:36Z</time>
      </trkpt>
      <trkpt lat="45.32464" lon="6.62411">
        <ele>2326.24</ele>
        <time>2016-07-15T09:37:57Z</time>
      </trkpt>
      <trkpt lat="45.32483" lon="6.62416">
        <ele>2323.5</ele>
        <time>2016-07-15T09:38:56Z</time>
      </trkpt>
      <trkpt lat="45.325" lon="6.62424">
        <ele>2319.57</ele>
        <time>2016-07-15T09:39:20Z</time>
      </trkpt>
      <trkpt lat="45.32517" lon="6.62417">
        <ele>2315.73</ele>
        <time>2016-07-15T09:39:38Z</time>
      </trkpt>
      <trkpt lat="45.32535" lon="6.62426">
        <ele>2310.34</ele>
        <time>2016-07-15T09:39:59Z</time>
      </trkpt>
      <trkpt lat="45.32554" lon="6.62426">
        <ele>2307.73</ele>
        <time>2016-07-15T09:40:15Z</time>
      </trkpt>
      <trkpt lat="45.32572" lon="6.62422">
        <ele>2307.49</ele>
        <time>2016-07-15T09:40:28Z</time>
      </trkpt>
      <trkpt lat="45.32589" lon="6.62434">
        <ele>2310.54</ele>
        <time>2016-07-15T09:40:44Z</time>
      </trkpt>
      <trkpt lat="45.32608" lon="6.62433">
        <ele>2310.74</ele>
        <time>2016-07-15T09:44:01Z</time>
      </trkpt>
      <trkpt lat="45.32622" lon="6.6245">
        <ele>2308.68</ele>
        <time>2016-07-15T09:44:37Z</time>
      </trkpt>
      <trkpt lat="45.32634" lon="6.62469">
        <ele>2306.56</ele>
        <time>2016-07-15T09:45:01Z</time>
      </trkpt>
      <trkpt lat="45.32649" lon="6.62488">
        <ele>2292.92</ele>
        <time>2016-07-15T09:45:40Z</time>
      </trkpt>
      <trkpt lat="45.32665" lon="6.62501">
        <ele>2291.54</ele>
        <time>2016-07-15T09:45:59Z</time>
      </trkpt>
      <trkpt lat="45.32684" lon="6.62504">
        <ele>2293.33</ele>
        <time>2016-07-15T09:46:15Z</time>
      </trkpt>
      <trkpt lat="45.32703" lon="6.62507">
        <ele>2283.52</ele>
        <time>2016-07-15T09:46:41Z</time>
      </trkpt>
      <trkpt lat="45.32722" lon="6.62507">
        <ele>2275.58</ele>
        <time>2016-07-15T09:47:04Z</time>
      </trkpt>
      <trkpt lat="45.32737" lon="6.62494">
        <ele>2259.53</ele>
        <time>2016-07-15T09:47:37Z</time>
      </trkpt>
      <trkpt lat="45.3275" lon="6.62474">
        <ele>2256.73</ele>
        <time>2016-07-15T09:47:52Z</time>
      </trkpt>
      <trkpt lat="45.32759" lon="6.6245">
        <ele>2254.33</ele>
        <time>2016-07-15T09:48:12Z</time>
      </trkpt>
      <trkpt lat="45.32764" lon="6.62424">
        <ele>2262.52</ele>
        <time>2016-07-15T09:48:31Z</time>
      </trkpt>
      <trkpt lat="45.32771" lon="6.62399">
        <ele>2257.53</ele>
        <time>2016-07-15T09:48:54Z</time>
      </trkpt>
      <trkpt lat="45.32788" lon="6.62392">
        <ele>2262.29</ele>
        <time>2016-07-15T09:49:33Z</time>
      </trkpt>
      <trkpt lat="45.32806" lon="6.62397">
        <ele>2265.52</ele>
        <time>2016-07-15T09:49:48Z</time>
      </trkpt>
      <trkpt lat="45.32823" lon="6.62405">
        <ele>2264.56</ele>
        <time>2016-07-15T09:50:03Z</time>
      </trkpt>
      <trkpt lat="45.32841" lon="6.62417">
        <ele>2265.49</ele>
        <time>2016-07-15T09:50:18Z</time>
      </trkpt>
      <trkpt lat="45.32857" lon="6.6243">
        <ele>2262.55</ele>
        <time>2016-07-15T09:50:29Z</time>
      </trkpt>
      <trkpt lat="45.32863" lon="6.62456">
        <ele>2261.54</ele>
        <time>2016-07-15T09:50:46Z</time>
      </trkpt>
      <trkpt lat="45.32873" lon="6.62478">
        <ele>2258.58</ele>
        <time>2016-07-15T09:51:01Z</time>
      </trkpt>
      <trkpt lat="45.32878" lon="6.62504">
        <ele>2253.57</ele>
        <time>2016-07-15T09:51:20Z</time>
      </trkpt>
      <trkpt lat="45.32894" lon="6.62518">
        <ele>2251.73</ele>
        <time>2016-07-15T09:51:33Z</time>
      </trkpt>
      <trkpt lat="45.32901" lon="6.62543">
        <ele>2252.49</ele>
        <time>2016-07-15T09:51:48Z</time>
      </trkpt>
      <trkpt lat="45.32911" lon="6.62565">
        <ele>2252.73</ele>
        <time>2016-07-15T09:52:54Z</time>
      </trkpt>
      <trkpt lat="45.32922" lon="6.62585">
        <ele>2247.73</ele>
        <time>2016-07-15T09:53:16Z</time>
      </trkpt>
      <trkpt lat="45.32937" lon="6.626">
        <ele>2243.53</ele>
        <time>2016-07-15T09:53:34Z</time>
      </trkpt>
      <trkpt lat="45.32949" lon="6.62619">
        <ele>2240.52</ele>
        <time>2016-07-15T09:53:51Z</time>
      </trkpt>
      <trkpt lat="45.32958" lon="6.62643">
        <ele>2237.33</ele>
        <time>2016-07-15T09:54:06Z</time>
      </trkpt>
      <trkpt lat="45.32975" lon="6.62656">
        <ele>2237.76</ele>
        <time>2016-07-15T09:54:21Z</time>
      </trkpt>
      <trkpt lat="45.32991" lon="6.62667">
        <ele>2235.17</ele>
        <time>2016-07-15T09:54:38Z</time>
      </trkpt>
      <trkpt lat="45.33008" lon="6.62682">
        <ele>2236.52</ele>
        <time>2016-07-15T09:55:01Z</time>
      </trkpt>
      <trkpt lat="45.33026" lon="6.62684">
        <ele>2228.57</ele>
        <time>2016-07-15T09:55:22Z</time>
      </trkpt>
      <trkpt lat="45.33045" lon="6.62683">
        <ele>2231.72</ele>
        <time>2016-07-15T09:55:41Z</time>
      </trkpt>
      <trkpt lat="45.33062" lon="6.6269">
        <ele>2235.33</ele>
        <time>2016-07-15T09:56:12Z</time>
      </trkpt>
      <trkpt lat="45.33081" lon="6.6269">
        <ele>2235.5</ele>
        <time>2016-07-15T09:56:26Z</time>
      </trkpt>
      <trkpt lat="45.33095" lon="6.62707">
        <ele>2237.54</ele>
        <time>2016-07-15T09:56:57Z</time>
      </trkpt>
      <trkpt lat="45.33113" lon="6.62716">
        <ele>2237.36</ele>
        <time>2016-07-15T09:57:29Z</time>
      </trkpt>
      <trkpt lat="45.33132" lon="6.6272">
        <ele>2232.73</ele>
        <time>2016-07-15T09:58:05Z</time>
      </trkpt>
      <trkpt lat="45.3315" lon="6.62723">
        <ele>2230.32</ele>
        <time>2016-07-15T09:58:18Z</time>
      </trkpt>
      <trkpt lat="45.33166" lon="6.62736">
        <ele>2229.5</ele>
        <time>2016-07-15T09:58:45Z</time>
      </trkpt>
      <trkpt lat="45.33176" lon="6.62757">
        <ele>2226.73</ele>
        <time>2016-07-15T09:59:14Z</time>
      </trkpt>
      <trkpt lat="45.33192" lon="6.62769">
        <ele>2223.56</ele>
        <time>2016-07-15T09:59:34Z</time>
      </trkpt>
      <trkpt lat="45.33195" lon="6.62794">
        <ele>2219.77</ele>
        <time>2016-07-15T10:00:18Z</time>
      </trkpt>
      <trkpt lat="45.33206" lon="6.62815">
        <ele>2213.33</ele>
        <time>2016-07-15T10:01:47Z</time>
      </trkpt>
      <trkpt lat="45.33222" lon="6.62828">
        <ele>2209.57</ele>
        <time>2016-07-15T10:02:07Z</time>
      </trkpt>
      <trkpt lat="45.33241" lon="6.62833">
        <ele>2207.44</ele>
        <time>2016-07-15T10:02:26Z</time>
      </trkpt>
      <trkpt lat="45.3326" lon="6.62832">
        <ele>2201.85</ele>
        <time>2016-07-15T10:02:46Z</time>
      </trkpt>
      <trkpt lat="45.33275" lon="6.62849">
        <ele>2191.75</ele>
        <time>2016-07-15T10:03:04Z</time>
      </trkpt>
      <trkpt lat="45.3329" lon="6.62866">
        <ele>2187.5</ele>
        <time>2016-07-15T10:03:21Z</time>
      </trkpt>
      <trkpt lat="45.33308" lon="6.62876">
        <ele>2190.48</ele>
        <time>2016-07-15T10:03:31Z</time>
      </trkpt>
      <trkpt lat="45.3332" lon="6.62894">
        <ele>2187.03</ele>
        <time>2016-07-15T10:04:16Z</time>
      </trkpt>
      <trkpt lat="45.33338" lon="6.62903">
        <ele>2179.01</ele>
        <time>2016-07-15T10:04:52Z</time>
      </trkpt>
      <trkpt lat="45.33355" lon="6.62911">
        <ele>2168.55</ele>
        <time>2016-07-15T10:05:06Z</time>
      </trkpt>
      <trkpt lat="45.33364" lon="6.62934">
        <ele>2171.72</ele>
        <time>2016-07-15T10:05:27Z</time>
      </trkpt>
      <trkpt lat="45.33372" lon="6.62958">
        <ele>2175.49</ele>
        <time>2016-07-15T10:05:42Z</time>
      </trkpt>
      <trkpt lat="45.33385" lon="6.62977">
        <ele>2165.46</ele>
        <time>2016-07-15T10:06:12Z</time>
      </trkpt>
      <trkpt lat="45.334" lon="6.62993">
        <ele>2163.54</ele>
        <time>2016-07-15T10:06:22Z</time>
      </trkpt>
      <trkpt lat="45.33417" lon="6.63008">
        <ele>2166.37</ele>
        <time>2016-07-15T10:06:33Z</time>
      </trkpt>
      <trkpt lat="45.33434" lon="6.6302">
        <ele>2168.48</ele>
        <time>2016-07-15T10:06:42Z</time>
      </trkpt>
      <trkpt lat="45.33444" lon="6.63041">
        <ele>2158.59</ele>
        <time>2016-07-15T10:07:18Z</time>
      </trkpt>
      <trkpt lat="45.33461" lon="6.63052">
        <ele>2159.37</ele>
        <time>2016-07-15T10:07:45Z</time>
      </trkpt>
      <trkpt lat="45.33476" lon="6.63066">
        <ele>2164.2</ele>
        <time>2016-07-15T10:07:52Z</time>
      </trkpt>
      <trkpt lat="45.33492" lon="6.63083">
        <ele>2164.89</ele>
        <time>2016-07-15T10:08:00Z</time>
      </trkpt>
      <trkpt lat="45.33507" lon="6.631">
        <ele>2164.54</ele>
        <time>2016-07-15T10:08:08Z</time>
      </trkpt>
      <trkpt lat="45.33526" lon="6.63116">
        <ele>2162.54</ele>
        <time>2016-07-15T10:08:16Z</time>
      </trkpt>
      <trkpt lat="45.33544" lon="6.6313">
        <ele>2162.28</ele>
        <time>2016-07-15T10:08:29Z</time>
      </trkpt>
      <trkpt lat="45.33554" lon="6.63151">
        <ele>2160.29</ele>
        <time>2016-07-15T10:09:01Z</time>
      </trkpt>
      <trkpt lat="45.33573" lon="6.63153">
        <ele>2148.77</ele>
        <time>2016-07-15T10:09:14Z</time>
      </trkpt>
      <trkpt lat="45.33591" lon="6.63161">
        <ele>2139.57</ele>
        <time>2016-07-15T10:09:29Z</time>
      </trkpt>
      <trkpt lat="45.33606" lon="6.63177">
        <ele>2134.53</ele>
        <time>2016-07-15T10:09:44Z</time>
      </trkpt>
      <trkpt lat="45.33619" lon="6.63195">
        <ele>2122.77</ele>
        <time>2016-07-15T10:10:06Z</time>
      </trkpt>
      <trkpt lat="45.33638" lon="6.63201">
        <ele>2121.53</ele>
        <time>2016-07-15T10:10:18Z</time>
      </trkpt>
      <trkpt lat="45.33656" lon="6.63205">
        <ele>2124.54</ele>
        <time>2016-07-15T10:10:30Z</time>
      </trkpt>
      <trkpt lat="45.33675" lon="6.63208">
        <ele>2119.12</ele>
        <time>2016-07-15T10:10:52Z</time>
      </trkpt>
      <trkpt lat="45.33692" lon="6.63219">
        <ele>2124.54</ele>
        <time>2016-07-15T10:11:06Z</time>
      </trkpt>
      <trkpt lat="45.33712" lon="6.63225">
        <ele>2131.37</ele>
        <time>2016-07-15T10:11:19Z</time>
      </trkpt>
      <trkpt lat="45.33702" lon="6.63246">
        <ele>2128.33</ele>
        <time>2016-07-15T10:12:00Z</time>
      </trkpt>
      <trkpt lat="45.33709" lon="6.63246">
        <ele>2130.53</ele>
        <time>2016-07-15T10:16:34Z</time>
      </trkpt>
      <trkpt lat="45.33696" lon="6.63227">
        <ele>2127.77</ele>
        <time>2016-07-15T10:40:44Z</time>
      </trkpt>
      <trkpt lat="45.33713" lon="6.63233">
        <ele>2126.92</ele>
        <time>2016-07-15T10:41:18Z</time>
      </trkpt>
      <trkpt lat="45.3373" lon="6.63242">
        <ele>2121.57</ele>
        <time>2016-07-15T10:41:29Z</time>
      </trkpt>
      <trkpt lat="45.33749" lon="6.63249">
        <ele>2120.5</ele>
        <time>2016-07-15T10:41:38Z</time>
      </trkpt>
      <trkpt lat="45.33768" lon="6.63242">
        <ele>2110.58</ele>
        <time>2016-07-15T10:41:57Z</time>
      </trkpt>
      <trkpt lat="45.33787" lon="6.63242">
        <ele>2112.58</ele>
        <time>2016-07-15T10:42:11Z</time>
      </trkpt>
      <trkpt lat="45.33806" lon="6.63248">
        <ele>2111.56</ele>
        <time>2016-07-15T10:42:19Z</time>
      </trkpt>
      <trkpt lat="45.33824" lon="6.6324">
        <ele>2102.57</ele>
        <time>2016-07-15T10:42:31Z</time>
      </trkpt>
      <trkpt lat="45.33821" lon="6.63214">
        <ele>2102.77</ele>
        <time>2016-07-15T10:42:41Z</time>
      </trkpt>
      <trkpt lat="45.33837" lon="6.63198">
        <ele>2096.58</ele>
        <time>2016-07-15T10:42:55Z</time>
      </trkpt>
      <trkpt lat="45.33853" lon="6.63186">
        <ele>2089.93</ele>
        <time>2016-07-15T10:43:09Z</time>
      </trkpt>
      <trkpt lat="45.33871" lon="6.6318">
        <ele>2088.34</ele>
        <time>2016-07-15T10:43:17Z</time>
      </trkpt>
      <trkpt lat="45.33887" lon="6.63167">
        <ele>2088.73</ele>
        <time>2016-07-15T10:43:34Z</time>
      </trkpt>
      <trkpt lat="45.33906" lon="6.6316">
        <ele>2083.78</ele>
        <time>2016-07-15T10:43:47Z</time>
      </trkpt>
      <trkpt lat="45.33924" lon="6.63157">
        <ele>2090.77</ele>
        <time>2016-07-15T10:43:58Z</time>
      </trkpt>
      <trkpt lat="45.33942" lon="6.63153">
        <ele>2091.46</ele>
        <time>2016-07-15T10:44:11Z</time>
      </trkpt>
      <trkpt lat="45.33963" lon="6.63147">
        <ele>2096.28</ele>
        <time>2016-07-15T10:44:33Z</time>
      </trkpt>
      <trkpt lat="45.33981" lon="6.6315">
        <ele>2095.34</ele>
        <time>2016-07-15T10:44:40Z</time>
      </trkpt>
      <trkpt lat="45.34" lon="6.63147">
        <ele>2093.37</ele>
        <time>2016-07-15T10:44:52Z</time>
      </trkpt>
      <trkpt lat="45.34021" lon="6.63141">
        <ele>2092.5</ele>
        <time>2016-07-15T10:45:05Z</time>
      </trkpt>
      <trkpt lat="45.34035" lon="6.63124">
        <ele>2098.13</ele>
        <time>2016-07-15T10:45:15Z</time>
      </trkpt>
      <trkpt lat="45.34052" lon="6.6311">
        <ele>2102.32</ele>
        <time>2016-07-15T10:45:24Z</time>
      </trkpt>
      <trkpt lat="45.34066" lon="6.63093">
        <ele>2098.57</ele>
        <time>2016-07-15T10:45:35Z</time>
      </trkpt>
      <trkpt lat="45.34084" lon="6.63085">
        <ele>2098.52</ele>
        <time>2016-07-15T10:45:44Z</time>
      </trkpt>
      <trkpt lat="45.34102" lon="6.63077">
        <ele>2100.33</ele>
        <time>2016-07-15T10:45:59Z</time>
      </trkpt>
      <trkpt lat="45.34119" lon="6.63073">
        <ele>2102.53</ele>
        <time>2016-07-15T10:46:10Z</time>
      </trkpt>
      <trkpt lat="45.34137" lon="6.63064">
        <ele>2100.53</ele>
        <time>2016-07-15T10:46:22Z</time>
      </trkpt>
      <trkpt lat="45.34153" lon="6.63051">
        <ele>2101.53</ele>
        <time>2016-07-15T10:46:34Z</time>
      </trkpt>
      <trkpt lat="45.34177" lon="6.63048">
        <ele>2098.53</ele>
        <time>2016-07-15T10:46:46Z</time>
      </trkpt>
      <trkpt lat="45.3418" lon="6.63021">
        <ele>2095.56</ele>
        <time>2016-07-15T10:47:02Z</time>
      </trkpt>
      <trkpt lat="45.3418" lon="6.62993">
        <ele>2091.37</ele>
        <time>2016-07-15T10:47:16Z</time>
      </trkpt>
      <trkpt lat="45.34178" lon="6.62966">
        <ele>2098.85</ele>
        <time>2016-07-15T10:47:26Z</time>
      </trkpt>
      <trkpt lat="45.34174" lon="6.62941">
        <ele>2103.53</ele>
        <time>2016-07-15T10:47:36Z</time>
      </trkpt>
      <trkpt lat="45.34173" lon="6.62914">
        <ele>2101.54</ele>
        <time>2016-07-15T10:47:49Z</time>
      </trkpt>
      <trkpt lat="45.34182" lon="6.6289">
        <ele>2101.57</ele>
        <time>2016-07-15T10:48:01Z</time>
      </trkpt>
      <trkpt lat="45.34187" lon="6.62865">
        <ele>2099.28</ele>
        <time>2016-07-15T10:48:15Z</time>
      </trkpt>
      <trkpt lat="45.342" lon="6.62845">
        <ele>2103.28</ele>
        <time>2016-07-15T10:48:29Z</time>
      </trkpt>
      <trkpt lat="45.34208" lon="6.62821">
        <ele>2110.13</ele>
        <time>2016-07-15T10:48:40Z</time>
      </trkpt>
      <trkpt lat="45.34217" lon="6.62797">
        <ele>2118.27</ele>
        <time>2016-07-15T10:48:50Z</time>
      </trkpt>
      <trkpt lat="45.34226" lon="6.62775">
        <ele>2116.53</ele>
        <time>2016-07-15T10:49:06Z</time>
      </trkpt>
      <trkpt lat="45.34239" lon="6.62757">
        <ele>2114.94</ele>
        <time>2016-07-15T10:49:19Z</time>
      </trkpt>
      <trkpt lat="45.34241" lon="6.62731">
        <ele>2109.56</ele>
        <time>2016-07-15T10:49:37Z</time>
      </trkpt>
      <trkpt lat="45.34253" lon="6.62711">
        <ele>2109.49</ele>
        <time>2016-07-15T10:49:50Z</time>
      </trkpt>
      <trkpt lat="45.34269" lon="6.62695">
        <ele>2112.52</ele>
        <time>2016-07-15T10:50:03Z</time>
      </trkpt>
      <trkpt lat="45.34284" lon="6.62681">
        <ele>2111.57</ele>
        <time>2016-07-15T10:50:15Z</time>
      </trkpt>
      <trkpt lat="45.34287" lon="6.62654">
        <ele>2109.53</ele>
        <time>2016-07-15T10:50:31Z</time>
      </trkpt>
      <trkpt lat="45.34303" lon="6.62639">
        <ele>2101.57</ele>
        <time>2016-07-15T10:50:56Z</time>
      </trkpt>
      <trkpt lat="45.34318" lon="6.62625">
        <ele>2104.53</ele>
        <time>2016-07-15T10:51:35Z</time>
      </trkpt>
      <trkpt lat="45.34315" lon="6.62598">
        <ele>2089.93</ele>
        <time>2016-07-15T10:52:07Z</time>
      </trkpt>
      <trkpt lat="45.34334" lon="6.62596">
        <ele>2086.73</ele>
        <time>2016-07-15T10:52:24Z</time>
      </trkpt>
      <trkpt lat="45.34336" lon="6.62569">
        <ele>2084.77</ele>
        <time>2016-07-15T10:52:48Z</time>
      </trkpt>
      <trkpt lat="45.34323" lon="6.6255">
        <ele>2079.57</ele>
        <time>2016-07-15T10:53:00Z</time>
      </trkpt>
      <trkpt lat="45.34341" lon="6.62538">
        <ele>2074.57</ele>
        <time>2016-07-15T10:53:19Z</time>
      </trkpt>
      <trkpt lat="45.34351" lon="6.62516">
        <ele>2069.7</ele>
        <time>2016-07-15T10:53:35Z</time>
      </trkpt>
      <trkpt lat="45.34348" lon="6.62489">
        <ele>2065.54</ele>
        <time>2016-07-15T10:53:50Z</time>
      </trkpt>
      <trkpt lat="45.34357" lon="6.62463">
        <ele>2067.33</ele>
        <time>2016-07-15T10:54:03Z</time>
      </trkpt>
      <trkpt lat="45.3435" lon="6.62439">
        <ele>2062.77</ele>
        <time>2016-07-15T10:54:15Z</time>
      </trkpt>
      <trkpt lat="45.34352" lon="6.62413">
        <ele>2059.73</ele>
        <time>2016-07-15T10:54:32Z</time>
      </trkpt>
      <trkpt lat="45.34354" lon="6.62387">
        <ele>2057.53</ele>
        <time>2016-07-15T10:54:47Z</time>
      </trkpt>
      <trkpt lat="45.34365" lon="6.62367">
        <ele>2052.5</ele>
        <time>2016-07-15T10:55:01Z</time>
      </trkpt>
      <trkpt lat="45.34365" lon="6.62341">
        <ele>2053.73</ele>
        <time>2016-07-15T10:55:14Z</time>
      </trkpt>
      <trkpt lat="45.34371" lon="6.62315">
        <ele>2051.78</ele>
        <time>2016-07-15T10:55:27Z</time>
      </trkpt>
      <trkpt lat="45.34374" lon="6.6229">
        <ele>2052.3</ele>
        <time>2016-07-15T10:55:40Z</time>
      </trkpt>
      <trkpt lat="45.34382" lon="6.62265">
        <ele>2049.49</ele>
        <time>2016-07-15T10:55:55Z</time>
      </trkpt>
      <trkpt lat="45.34393" lon="6.62243">
        <ele>2049.69</ele>
        <time>2016-07-15T10:56:07Z</time>
      </trkpt>
      <trkpt lat="45.34396" lon="6.62216">
        <ele>2046.49</ele>
        <time>2016-07-15T10:56:19Z</time>
      </trkpt>
      <trkpt lat="45.34402" lon="6.6219">
        <ele>2043.56</ele>
        <time>2016-07-15T10:56:33Z</time>
      </trkpt>
      <trkpt lat="45.3441" lon="6.62166">
        <ele>2043.57</ele>
        <time>2016-07-15T10:56:46Z</time>
      </trkpt>
      <trkpt lat="45.34427" lon="6.62153">
        <ele>2040.57</ele>
        <time>2016-07-15T10:56:58Z</time>
      </trkpt>
      <trkpt lat="45.34435" lon="6.62127">
        <ele>2042.52</ele>
        <time>2016-07-15T10:57:11Z</time>
      </trkpt>
      <trkpt lat="45.34446" lon="6.62104">
        <ele>2039.53</ele>
        <time>2016-07-15T10:57:28Z</time>
      </trkpt>
      <trkpt lat="45.34459" lon="6.62084">
        <ele>2041.33</ele>
        <time>2016-07-15T10:57:38Z</time>
      </trkpt>
      <trkpt lat="45.34473" lon="6.62067">
        <ele>2042.54</ele>
        <time>2016-07-15T10:57:52Z</time>
      </trkpt>
      <trkpt lat="45.34486" lon="6.62047">
        <ele>2041.57</ele>
        <time>2016-07-15T10:58:05Z</time>
      </trkpt>
      <trkpt lat="45.34497" lon="6.62025">
        <ele>2038.21</ele>
        <time>2016-07-15T10:58:19Z</time>
      </trkpt>
      <trkpt lat="45.34511" lon="6.62009">
        <ele>2035.78</ele>
        <time>2016-07-15T10:58:32Z</time>
      </trkpt>
      <trkpt lat="45.34523" lon="6.61987">
        <ele>2033.34</ele>
        <time>2016-07-15T10:58:43Z</time>
      </trkpt>
      <trkpt lat="45.34527" lon="6.61961">
        <ele>2033.29</ele>
        <time>2016-07-15T10:58:56Z</time>
      </trkpt>
      <trkpt lat="45.34536" lon="6.61939">
        <ele>2032.49</ele>
        <time>2016-07-15T10:59:10Z</time>
      </trkpt>
      <trkpt lat="45.34542" lon="6.61913">
        <ele>2032.37</ele>
        <time>2016-07-15T10:59:22Z</time>
      </trkpt>
      <trkpt lat="45.34555" lon="6.61894">
        <ele>2030.39</ele>
        <time>2016-07-15T10:59:36Z</time>
      </trkpt>
      <trkpt lat="45.34566" lon="6.61873">
        <ele>2027.73</ele>
        <time>2016-07-15T10:59:49Z</time>
      </trkpt>
      <trkpt lat="45.34572" lon="6.61848">
        <ele>2028.52</ele>
        <time>2016-07-15T11:00:03Z</time>
      </trkpt>
      <trkpt lat="45.34589" lon="6.61834">
        <ele>2027.37</ele>
        <time>2016-07-15T11:00:16Z</time>
      </trkpt>
      <trkpt lat="45.34605" lon="6.61819">
        <ele>2028.52</ele>
        <time>2016-07-15T11:00:27Z</time>
      </trkpt>
      <trkpt lat="45.34623" lon="6.61803">
        <ele>2030.29</ele>
        <time>2016-07-15T11:00:42Z</time>
      </trkpt>
      <trkpt lat="45.34637" lon="6.61787">
        <ele>2026.7</ele>
        <time>2016-07-15T11:01:00Z</time>
      </trkpt>
      <trkpt lat="45.34652" lon="6.6177">
        <ele>2028.49</ele>
        <time>2016-07-15T11:01:11Z</time>
      </trkpt>
      <trkpt lat="45.34671" lon="6.61771">
        <ele>2022.7</ele>
        <time>2016-07-15T11:01:23Z</time>
      </trkpt>
      <trkpt lat="45.34689" lon="6.61761">
        <ele>2022.33</ele>
        <time>2016-07-15T11:01:37Z</time>
      </trkpt>
      <trkpt lat="45.34707" lon="6.61759">
        <ele>2020.72</ele>
        <time>2016-07-15T11:01:47Z</time>
      </trkpt>
      <trkpt lat="45.34721" lon="6.61742">
        <ele>2020.72</ele>
        <time>2016-07-15T11:02:00Z</time>
      </trkpt>
      <trkpt lat="45.3474" lon="6.61735">
        <ele>2019.49</ele>
        <time>2016-07-15T11:02:14Z</time>
      </trkpt>
      <trkpt lat="45.34756" lon="6.61723">
        <ele>2018.69</ele>
        <time>2016-07-15T11:02:27Z</time>
      </trkpt>
      <trkpt lat="45.34769" lon="6.61705">
        <ele>2019.53</ele>
        <time>2016-07-15T11:02:41Z</time>
      </trkpt>
      <trkpt lat="45.34759" lon="6.61683">
        <ele>2021.54</ele>
        <time>2016-07-15T11:02:58Z</time>
      </trkpt>
      <trkpt lat="45.34752" lon="6.6166">
        <ele>2022.33</ele>
        <time>2016-07-15T11:03:12Z</time>
      </trkpt>
      <trkpt lat="45.3476" lon="6.61635">
        <ele>2023.28</ele>
        <time>2016-07-15T11:03:32Z</time>
      </trkpt>
      <trkpt lat="45.34777" lon="6.61629">
        <ele>2019.56</ele>
        <time>2016-07-15T11:03:49Z</time>
      </trkpt>
      <trkpt lat="45.34796" lon="6.61623">
        <ele>2017.7</ele>
        <time>2016-07-15T11:04:07Z</time>
      </trkpt>
      <trkpt lat="45.34809" lon="6.61606">
        <ele>2017.48</ele>
        <time>2016-07-15T11:04:21Z</time>
      </trkpt>
      <trkpt lat="45.34829" lon="6.61602">
        <ele>2016.49</ele>
        <time>2016-07-15T11:04:35Z</time>
      </trkpt>
      <trkpt lat="45.34846" lon="6.61592">
        <ele>2016.53</ele>
        <time>2016-07-15T11:04:50Z</time>
      </trkpt>
      <trkpt lat="45.34863" lon="6.6158">
        <ele>2016.54</ele>
        <time>2016-07-15T11:05:04Z</time>
      </trkpt>
      <trkpt lat="45.34879" lon="6.61571">
        <ele>2015.52</ele>
        <time>2016-07-15T11:05:17Z</time>
      </trkpt>
      <trkpt lat="45.34898" lon="6.61563">
        <ele>2013.53</ele>
        <time>2016-07-15T11:05:43Z</time>
      </trkpt>
      <trkpt lat="45.34915" lon="6.61551">
        <ele>2008.54</ele>
        <time>2016-07-15T11:06:01Z</time>
      </trkpt>
      <trkpt lat="45.34921" lon="6.61525">
        <ele>2009.53</ele>
        <time>2016-07-15T11:06:14Z</time>
      </trkpt>
      <trkpt lat="45.34939" lon="6.61511">
        <ele>2011.33</ele>
        <time>2016-07-15T11:06:26Z</time>
      </trkpt>
      <trkpt lat="45.3496" lon="6.61515">
        <ele>2010.33</ele>
        <time>2016-07-15T11:06:38Z</time>
      </trkpt>
      <trkpt lat="45.34978" lon="6.61504">
        <ele>2007.57</ele>
        <time>2016-07-15T11:06:54Z</time>
      </trkpt>
      <trkpt lat="45.34994" lon="6.61492">
        <ele>2008.33</ele>
        <time>2016-07-15T11:07:06Z</time>
      </trkpt>
      <trkpt lat="45.35011" lon="6.61484">
        <ele>2009.53</ele>
        <time>2016-07-15T11:07:19Z</time>
      </trkpt>
      <trkpt lat="45.3503" lon="6.61475">
        <ele>2014.95</ele>
        <time>2016-07-15T11:07:28Z</time>
      </trkpt>
      <trkpt lat="45.3504" lon="6.61452">
        <ele>2009.77</ele>
        <time>2016-07-15T11:07:48Z</time>
      </trkpt>
      <trkpt lat="45.35047" lon="6.61427">
        <ele>2007.48</ele>
        <time>2016-07-15T11:08:00Z</time>
      </trkpt>
      <trkpt lat="45.35066" lon="6.61418">
        <ele>2009.32</ele>
        <time>2016-07-15T11:08:10Z</time>
      </trkpt>
      <trkpt lat="45.35086" lon="6.6141">
        <ele>2013.96</ele>
        <time>2016-07-15T11:08:18Z</time>
      </trkpt>
      <trkpt lat="45.35103" lon="6.61397">
        <ele>2009.53</ele>
        <time>2016-07-15T11:08:36Z</time>
      </trkpt>
      <trkpt lat="45.35118" lon="6.61382">
        <ele>2013.49</ele>
        <time>2016-07-15T11:08:47Z</time>
      </trkpt>
      <trkpt lat="45.35136" lon="6.61369">
        <ele>2007.5</ele>
        <time>2016-07-15T11:09:17Z</time>
      </trkpt>
      <trkpt lat="45.35157" lon="6.61369">
        <ele>2006.33</ele>
        <time>2016-07-15T11:09:31Z</time>
      </trkpt>
      <trkpt lat="45.35176" lon="6.61361">
        <ele>2006.32</ele>
        <time>2016-07-15T11:09:44Z</time>
      </trkpt>
      <trkpt lat="45.35195" lon="6.61351">
        <ele>2006.33</ele>
        <time>2016-07-15T11:09:57Z</time>
      </trkpt>
      <trkpt lat="45.35202" lon="6.61326">
        <ele>2009.53</ele>
        <time>2016-07-15T11:10:12Z</time>
      </trkpt>
      <trkpt lat="45.35219" lon="6.61315">
        <ele>2006.59</ele>
        <time>2016-07-15T11:10:28Z</time>
      </trkpt>
      <trkpt lat="45.35235" lon="6.61304">
        <ele>2006.53</ele>
        <time>2016-07-15T11:10:41Z</time>
      </trkpt>
      <trkpt lat="45.35253" lon="6.61297">
        <ele>2008.44</ele>
        <time>2016-07-15T11:10:51Z</time>
      </trkpt>
      <trkpt lat="45.35274" lon="6.61291">
        <ele>2010.29</ele>
        <time>2016-07-15T11:11:05Z</time>
      </trkpt>
      <trkpt lat="45.35294" lon="6.6129">
        <ele>2014.08</ele>
        <time>2016-07-15T11:11:12Z</time>
      </trkpt>
      <trkpt lat="45.35311" lon="6.61281">
        <ele>2015.32</ele>
        <time>2016-07-15T11:11:32Z</time>
      </trkpt>
      <trkpt lat="45.3533" lon="6.61276">
        <ele>2011.49</ele>
        <time>2016-07-15T11:11:55Z</time>
      </trkpt>
      <trkpt lat="45.35348" lon="6.61279">
        <ele>2012.16</ele>
        <time>2016-07-15T11:12:12Z</time>
      </trkpt>
      <trkpt lat="45.35355" lon="6.61254">
        <ele>2008.09</ele>
        <time>2016-07-15T11:12:36Z</time>
      </trkpt>
      <trkpt lat="45.35373" lon="6.61247">
        <ele>2007.74</ele>
        <time>2016-07-15T11:12:49Z</time>
      </trkpt>
      <trkpt lat="45.35392" lon="6.6125">
        <ele>2007.73</ele>
        <time>2016-07-15T11:13:10Z</time>
      </trkpt>
      <trkpt lat="45.35411" lon="6.61248">
        <ele>2003.74</ele>
        <time>2016-07-15T11:13:24Z</time>
      </trkpt>
      <trkpt lat="45.35428" lon="6.61239">
        <ele>2001.55</ele>
        <time>2016-07-15T11:13:36Z</time>
      </trkpt>
      <trkpt lat="45.35441" lon="6.6122">
        <ele>2002.41</ele>
        <time>2016-07-15T11:13:51Z</time>
      </trkpt>
      <trkpt lat="45.35455" lon="6.61201">
        <ele>1996.56</ele>
        <time>2016-07-15T11:14:07Z</time>
      </trkpt>
      <trkpt lat="45.35469" lon="6.61185">
        <ele>1997.33</ele>
        <time>2016-07-15T11:14:23Z</time>
      </trkpt>
      <trkpt lat="45.35485" lon="6.61169">
        <ele>1997.77</ele>
        <time>2016-07-15T11:14:37Z</time>
      </trkpt>
      <trkpt lat="45.35499" lon="6.61153">
        <ele>1999.3</ele>
        <time>2016-07-15T11:14:49Z</time>
      </trkpt>
      <trkpt lat="45.35511" lon="6.61134">
        <ele>1995.57</ele>
        <time>2016-07-15T11:15:03Z</time>
      </trkpt>
      <trkpt lat="45.35528" lon="6.6112">
        <ele>1995.53</ele>
        <time>2016-07-15T11:15:21Z</time>
      </trkpt>
      <trkpt lat="45.35544" lon="6.61133">
        <ele>1995.97</ele>
        <time>2016-07-15T11:18:15Z</time>
      </trkpt>
      <trkpt lat="45.35561" lon="6.61121">
        <ele>1992.53</ele>
        <time>2016-07-15T11:18:26Z</time>
      </trkpt>
      <trkpt lat="45.35577" lon="6.61108">
        <ele>1991.58</ele>
        <time>2016-07-15T11:18:44Z</time>
      </trkpt>
      <trkpt lat="45.35595" lon="6.61101">
        <ele>1996.52</ele>
        <time>2016-07-15T11:18:55Z</time>
      </trkpt>
      <trkpt lat="45.35613" lon="6.61092">
        <ele>1995.54</ele>
        <time>2016-07-15T11:19:11Z</time>
      </trkpt>
      <trkpt lat="45.35606" lon="6.61118">
        <ele>1995.49</ele>
        <time>2016-07-15T11:20:14Z</time>
      </trkpt>
      <trkpt lat="45.35605" lon="6.61144">
        <ele>1991.55</ele>
        <time>2016-07-15T11:23:03Z</time>
      </trkpt>
      <trkpt lat="45.35627" lon="6.61142">
        <ele>1991.13</ele>
        <time>2016-07-15T11:23:16Z</time>
      </trkpt>
      <trkpt lat="45.35646" lon="6.61132">
        <ele>1982.73</ele>
        <time>2016-07-15T11:24:41Z</time>
      </trkpt>
      <trkpt lat="45.35664" lon="6.61129">
        <ele>1988.56</ele>
        <time>2016-07-15T11:25:10Z</time>
      </trkpt>
      <trkpt lat="45.35683" lon="6.61132">
        <ele>1985.33</ele>
        <time>2016-07-15T11:25:32Z</time>
      </trkpt>
      <trkpt lat="45.35701" lon="6.6114">
        <ele>1981.57</ele>
        <time>2016-07-15T11:25:46Z</time>
      </trkpt>
      <trkpt lat="45.35714" lon="6.61159">
        <ele>1975.53</ele>
        <time>2016-07-15T11:26:42Z</time>
      </trkpt>
      <trkpt lat="45.35726" lon="6.61178">
        <ele>1983.43</ele>
        <time>2016-07-15T11:29:14Z</time>
      </trkpt>
      <trkpt lat="45.35745" lon="6.61179">
        <ele>1989.52</ele>
        <time>2016-07-15T11:29:40Z</time>
      </trkpt>
      <trkpt lat="45.35764" lon="6.61186">
        <ele>1985.73</ele>
        <time>2016-07-15T11:30:09Z</time>
      </trkpt>
      <trkpt lat="45.35775" lon="6.61165">
        <ele>1981.57</ele>
        <time>2016-07-15T11:30:53Z</time>
      </trkpt>
      <trkpt lat="45.35794" lon="6.61161">
        <ele>1985.54</ele>
        <time>2016-07-15T11:31:19Z</time>
      </trkpt>
      <trkpt lat="45.35803" lon="6.61139">
        <ele>1980.69</ele>
        <time>2016-07-15T11:32:17Z</time>
      </trkpt>
      <trkpt lat="45.35801" lon="6.61111">
        <ele>1981.94</ele>
        <time>2016-07-15T11:32:36Z</time>
      </trkpt>
      <trkpt lat="45.35812" lon="6.6109">
        <ele>1980.53</ele>
        <time>2016-07-15T11:32:56Z</time>
      </trkpt>
      <trkpt lat="45.35826" lon="6.61074">
        <ele>1981.54</ele>
        <time>2016-07-15T11:33:13Z</time>
      </trkpt>
      <trkpt lat="45.35833" lon="6.6105">
        <ele>1984.29</ele>
        <time>2016-07-15T11:33:28Z</time>
      </trkpt>
      <trkpt lat="45.3584" lon="6.61024">
        <ele>1985.53</ele>
        <time>2016-07-15T11:33:42Z</time>
      </trkpt>
      <trkpt lat="45.35853" lon="6.61006">
        <ele>1989.43</ele>
        <time>2016-07-15T11:33:59Z</time>
      </trkpt>
      <trkpt lat="45.35867" lon="6.6099">
        <ele>1988.58</ele>
        <time>2016-07-15T11:34:36Z</time>
      </trkpt>
      <trkpt lat="45.35873" lon="6.60964">
        <ele>1994.49</ele>
        <time>2016-07-15T11:34:49Z</time>
      </trkpt>
      <trkpt lat="45.35879" lon="6.60937">
        <ele>2000.52</ele>
        <time>2016-07-15T11:35:01Z</time>
      </trkpt>
      <trkpt lat="45.3589" lon="6.60916">
        <ele>2005.33</ele>
        <time>2016-07-15T11:35:12Z</time>
      </trkpt>
      <trkpt lat="45.359" lon="6.60892">
        <ele>2015.72</ele>
        <time>2016-07-15T11:35:45Z</time>
      </trkpt>
      <trkpt lat="45.35912" lon="6.60872">
        <ele>2020.53</ele>
        <time>2016-07-15T11:36:06Z</time>
      </trkpt>
      <trkpt lat="45.35922" lon="6.6085">
        <ele>2019.69</ele>
        <time>2016-07-15T11:37:35Z</time>
      </trkpt>
      <trkpt lat="45.35933" lon="6.60829">
        <ele>2020.57</ele>
        <time>2016-07-15T11:37:53Z</time>
      </trkpt>
      <trkpt lat="45.35937" lon="6.60801">
        <ele>2028.68</ele>
        <time>2016-07-15T11:38:38Z</time>
      </trkpt>
      <trkpt lat="45.35937" lon="6.60775">
        <ele>2025.58</ele>
        <time>2016-07-15T11:38:48Z</time>
      </trkpt>
      <trkpt lat="45.35937" lon="6.60749">
        <ele>2023.53</ele>
        <time>2016-07-15T11:38:55Z</time>
      </trkpt>
      <trkpt lat="45.35939" lon="6.60722">
        <ele>2031.34</ele>
        <time>2016-07-15T11:39:15Z</time>
      </trkpt>
      <trkpt lat="45.35949" lon="6.60701">
        <ele>2028.54</ele>
        <time>2016-07-15T11:39:37Z</time>
      </trkpt>
      <trkpt lat="45.35948" lon="6.60675">
        <ele>2025.6</ele>
        <time>2016-07-15T11:40:20Z</time>
      </trkpt>
      <trkpt lat="45.35956" lon="6.6065">
        <ele>2026.52</ele>
        <time>2016-07-15T11:42:17Z</time>
      </trkpt>
      <trkpt lat="45.35968" lon="6.60629">
        <ele>2025.48</ele>
        <time>2016-07-15T11:42:36Z</time>
      </trkpt>
      <trkpt lat="45.35966" lon="6.60601">
        <ele>2028.52</ele>
        <time>2016-07-15T11:42:49Z</time>
      </trkpt>
      <trkpt lat="45.35969" lon="6.60576">
        <ele>2026.56</ele>
        <time>2016-07-15T11:43:05Z</time>
      </trkpt>
      <trkpt lat="45.35963" lon="6.60549">
        <ele>2030.56</ele>
        <time>2016-07-15T11:43:23Z</time>
      </trkpt>
      <trkpt lat="45.35962" lon="6.60523">
        <ele>2030.53</ele>
        <time>2016-07-15T11:43:40Z</time>
      </trkpt>
      <trkpt lat="45.35962" lon="6.60497">
        <ele>2033.77</ele>
        <time>2016-07-15T11:44:14Z</time>
      </trkpt>
      <trkpt lat="45.35963" lon="6.60471">
        <ele>2028.77</ele>
        <time>2016-07-15T11:44:27Z</time>
      </trkpt>
      <trkpt lat="45.35972" lon="6.60449">
        <ele>2027.53</ele>
        <time>2016-07-15T11:44:37Z</time>
      </trkpt>
      <trkpt lat="45.35978" lon="6.60424">
        <ele>2023.59</ele>
        <time>2016-07-15T11:44:53Z</time>
      </trkpt>
      <trkpt lat="45.35979" lon="6.60398">
        <ele>2031.52</ele>
        <time>2016-07-15T11:45:29Z</time>
      </trkpt>
      <trkpt lat="45.35986" lon="6.60375">
        <ele>2027.92</ele>
        <time>2016-07-15T11:45:45Z</time>
      </trkpt>
      <trkpt lat="45.35988" lon="6.60349">
        <ele>2029.09</ele>
        <time>2016-07-15T11:45:53Z</time>
      </trkpt>
      <trkpt lat="45.35993" lon="6.60324">
        <ele>2027.69</ele>
        <time>2016-07-15T11:46:10Z</time>
      </trkpt>
      <trkpt lat="45.36" lon="6.60299">
        <ele>2026.53</ele>
        <time>2016-07-15T11:46:25Z</time>
      </trkpt>
      <trkpt lat="45.36" lon="6.6027">
        <ele>2025.33</ele>
        <time>2016-07-15T11:46:41Z</time>
      </trkpt>
      <trkpt lat="45.36007" lon="6.60245">
        <ele>2028.74</ele>
        <time>2016-07-15T11:46:55Z</time>
      </trkpt>
      <trkpt lat="45.36012" lon="6.60219">
        <ele>2028.77</ele>
        <time>2016-07-15T11:47:11Z</time>
      </trkpt>
      <trkpt lat="45.36008" lon="6.60192">
        <ele>2027.34</ele>
        <time>2016-07-15T11:47:24Z</time>
      </trkpt>
      <trkpt lat="45.36003" lon="6.60167">
        <ele>2020.53</ele>
        <time>2016-07-15T11:47:43Z</time>
      </trkpt>
      <trkpt lat="45.36001" lon="6.60141">
        <ele>2024.49</ele>
        <time>2016-07-15T11:47:59Z</time>
      </trkpt>
      <trkpt lat="45.3601" lon="6.60117">
        <ele>2023.73</ele>
        <time>2016-07-15T11:48:15Z</time>
      </trkpt>
      <trkpt lat="45.36016" lon="6.60092">
        <ele>2029.49</ele>
        <time>2016-07-15T11:48:36Z</time>
      </trkpt>
      <trkpt lat="45.36023" lon="6.60068">
        <ele>2029.76</ele>
        <time>2016-07-15T11:48:53Z</time>
      </trkpt>
      <trkpt lat="45.36031" lon="6.60043">
        <ele>2027.53</ele>
        <time>2016-07-15T11:49:07Z</time>
      </trkpt>
      <trkpt lat="45.36044" lon="6.60023">
        <ele>2029.55</ele>
        <time>2016-07-15T11:49:25Z</time>
      </trkpt>
      <trkpt lat="45.36053" lon="6.6">
        <ele>2026.57</ele>
        <time>2016-07-15T11:49:42Z</time>
      </trkpt>
      <trkpt lat="45.3606" lon="6.59976">
        <ele>2024.53</ele>
        <time>2016-07-15T11:49:58Z</time>
      </trkpt>
      <trkpt lat="45.36063" lon="6.5995">
        <ele>2027.33</ele>
        <time>2016-07-15T11:50:13Z</time>
      </trkpt>
      <trkpt lat="45.36074" lon="6.59929">
        <ele>2030.72</ele>
        <time>2016-07-15T11:50:28Z</time>
      </trkpt>
      <trkpt lat="45.36089" lon="6.59913">
        <ele>2031.5</ele>
        <time>2016-07-15T11:50:44Z</time>
      </trkpt>
      <trkpt lat="45.36106" lon="6.59903">
        <ele>2034.37</ele>
        <time>2016-07-15T11:50:58Z</time>
      </trkpt>
      <trkpt lat="45.3612" lon="6.59884">
        <ele>2030.57</ele>
        <time>2016-07-15T11:51:20Z</time>
      </trkpt>
      <trkpt lat="45.36132" lon="6.59865">
        <ele>2025.72</ele>
        <time>2016-07-15T11:51:36Z</time>
      </trkpt>
      <trkpt lat="45.36133" lon="6.59838">
        <ele>2014.58</ele>
        <time>2016-07-15T11:52:03Z</time>
      </trkpt>
      <trkpt lat="45.36141" lon="6.59814">
        <ele>2008.74</ele>
        <time>2016-07-15T11:52:28Z</time>
      </trkpt>
      <trkpt lat="45.36141" lon="6.59787">
        <ele>2004.72</ele>
        <time>2016-07-15T11:52:41Z</time>
      </trkpt>
      <trkpt lat="45.3615" lon="6.59765">
        <ele>1999.53</ele>
        <time>2016-07-15T11:53:06Z</time>
      </trkpt>
      <trkpt lat="45.36157" lon="6.5974">
        <ele>1990.53</ele>
        <time>2016-07-15T11:53:23Z</time>
      </trkpt>
      <trkpt lat="45.36174" lon="6.59731">
        <ele>1993.29</ele>
        <time>2016-07-15T11:53:35Z</time>
      </trkpt>
      <trkpt lat="45.3621" lon="6.5968">
        <ele>1973.01</ele>
        <time>2016-07-15T11:54:44Z</time>
      </trkpt>
      <trkpt lat="45.36214" lon="6.59655">
        <ele>1980.73</ele>
        <time>2016-07-15T11:55:04Z</time>
      </trkpt>
      <trkpt lat="45.36224" lon="6.59632">
        <ele>1978.54</ele>
        <time>2016-07-15T11:55:19Z</time>
      </trkpt>
      <trkpt lat="45.36226" lon="6.59604">
        <ele>1976.33</ele>
        <time>2016-07-15T11:55:41Z</time>
      </trkpt>
      <trkpt lat="45.36231" lon="6.59574">
        <ele>1974.81</ele>
        <time>2016-07-15T11:55:55Z</time>
      </trkpt>
      <trkpt lat="45.36239" lon="6.5955">
        <ele>1974.31</ele>
        <time>2016-07-15T11:56:19Z</time>
      </trkpt>
      <trkpt lat="45.3624" lon="6.59524">
        <ele>1964.56</ele>
        <time>2016-07-15T11:56:44Z</time>
      </trkpt>
      <trkpt lat="45.36242" lon="6.59498">
        <ele>1956.9</ele>
        <time>2016-07-15T11:58:02Z</time>
      </trkpt>
      <trkpt lat="45.36251" lon="6.59474">
        <ele>1942.81</ele>
        <time>2016-07-15T11:58:25Z</time>
      </trkpt>
      <trkpt lat="45.36262" lon="6.59451">
        <ele>1944.73</ele>
        <time>2016-07-15T11:58:39Z</time>
      </trkpt>
      <trkpt lat="45.36276" lon="6.59432">
        <ele>1945.96</ele>
        <time>2016-07-15T11:58:57Z</time>
      </trkpt>
      <trkpt lat="45.36291" lon="6.59418">
        <ele>1940.33</ele>
        <time>2016-07-15T11:59:12Z</time>
      </trkpt>
      <trkpt lat="45.36319" lon="6.59394">
        <ele>1940.49</ele>
        <time>2016-07-15T11:59:41Z</time>
      </trkpt>
      <trkpt lat="45.36305" lon="6.59378">
        <ele>1926.55</ele>
        <time>2016-07-15T11:59:44Z</time>
      </trkpt>
      <trkpt lat="45.36307" lon="6.59352">
        <ele>1922.13</ele>
        <time>2016-07-15T11:59:59Z</time>
      </trkpt>
      <trkpt lat="45.36315" lon="6.59327">
        <ele>1923.13</ele>
        <time>2016-07-15T12:00:11Z</time>
      </trkpt>
      <trkpt lat="45.36325" lon="6.59303">
        <ele>1920.53</ele>
        <time>2016-07-15T12:00:27Z</time>
      </trkpt>
      <trkpt lat="45.36336" lon="6.59282">
        <ele>1918.54</ele>
        <time>2016-07-15T12:00:42Z</time>
      </trkpt>
      <trkpt lat="45.36343" lon="6.59259">
        <ele>1917.53</ele>
        <time>2016-07-15T12:01:00Z</time>
      </trkpt>
      <trkpt lat="45.36356" lon="6.59239">
        <ele>1919.45</ele>
        <time>2016-07-15T12:01:11Z</time>
      </trkpt>
      <trkpt lat="45.36365" lon="6.59215">
        <ele>1919.72</ele>
        <time>2016-07-15T12:01:21Z</time>
      </trkpt>
      <trkpt lat="45.36372" lon="6.59191">
        <ele>1913.76</ele>
        <time>2016-07-15T12:01:37Z</time>
      </trkpt>
      <trkpt lat="45.36389" lon="6.59179">
        <ele>1912.53</ele>
        <time>2016-07-15T12:01:51Z</time>
      </trkpt>
      <trkpt lat="45.36407" lon="6.59178">
        <ele>1914.49</ele>
        <time>2016-07-15T12:02:02Z</time>
      </trkpt>
      <trkpt lat="45.36425" lon="6.59168">
        <ele>1908.5</ele>
        <time>2016-07-15T12:02:18Z</time>
      </trkpt>
      <trkpt lat="45.36437" lon="6.59148">
        <ele>1906.54</ele>
        <time>2016-07-15T12:02:31Z</time>
      </trkpt>
      <trkpt lat="45.36455" lon="6.59143">
        <ele>1895.73</ele>
        <time>2016-07-15T12:03:03Z</time>
      </trkpt>
      <trkpt lat="45.36472" lon="6.5915">
        <ele>1896.72</ele>
        <time>2016-07-15T12:03:13Z</time>
      </trkpt>
      <trkpt lat="45.36487" lon="6.59166">
        <ele>1897.78</ele>
        <time>2016-07-15T12:03:28Z</time>
      </trkpt>
      <trkpt lat="45.36505" lon="6.59164">
        <ele>1896.3</ele>
        <time>2016-07-15T12:03:43Z</time>
      </trkpt>
      <trkpt lat="45.36519" lon="6.59148">
        <ele>1897.52</ele>
        <time>2016-07-15T12:03:57Z</time>
      </trkpt>
      <trkpt lat="45.36533" lon="6.59126">
        <ele>1898.37</ele>
        <time>2016-07-15T12:04:12Z</time>
      </trkpt>
      <trkpt lat="45.3655" lon="6.59117">
        <ele>1899.5</ele>
        <time>2016-07-15T12:04:25Z</time>
      </trkpt>
      <trkpt lat="45.36568" lon="6.59117">
        <ele>1895.59</ele>
        <time>2016-07-15T12:04:41Z</time>
      </trkpt>
      <trkpt lat="45.36586" lon="6.59122">
        <ele>1895.69</ele>
        <time>2016-07-15T12:05:00Z</time>
      </trkpt>
      <trkpt lat="45.36603" lon="6.59111">
        <ele>1895.41</ele>
        <time>2016-07-15T12:05:17Z</time>
      </trkpt>
      <trkpt lat="45.36615" lon="6.5909">
        <ele>1893.13</ele>
        <time>2016-07-15T12:05:32Z</time>
      </trkpt>
      <trkpt lat="45.3663" lon="6.59074">
        <ele>1895.54</ele>
        <time>2016-07-15T12:05:50Z</time>
      </trkpt>
      <trkpt lat="45.36631" lon="6.59048">
        <ele>1889.42</ele>
        <time>2016-07-15T12:06:17Z</time>
      </trkpt>
      <trkpt lat="45.36648" lon="6.59035">
        <ele>1885.53</ele>
        <time>2016-07-15T12:07:02Z</time>
      </trkpt>
      <trkpt lat="45.36662" lon="6.59019">
        <ele>1886.73</ele>
        <time>2016-07-15T12:07:20Z</time>
      </trkpt>
      <trkpt lat="45.36677" lon="6.59002">
        <ele>1879.58</ele>
        <time>2016-07-15T12:07:50Z</time>
      </trkpt>
      <trkpt lat="45.36696" lon="6.59">
        <ele>1879.52</ele>
        <time>2016-07-15T12:08:03Z</time>
      </trkpt>
      <trkpt lat="45.36715" lon="6.58999">
        <ele>1882.33</ele>
        <time>2016-07-15T12:08:21Z</time>
      </trkpt>
      <trkpt lat="45.36733" lon="6.59001">
        <ele>1880.57</ele>
        <time>2016-07-15T12:09:27Z</time>
      </trkpt>
      <trkpt lat="45.36746" lon="6.58983">
        <ele>1879.49</ele>
        <time>2016-07-15T12:09:39Z</time>
      </trkpt>
      <trkpt lat="45.36758" lon="6.58962">
        <ele>1880.56</ele>
        <time>2016-07-15T12:09:53Z</time>
      </trkpt>
      <trkpt lat="45.3677" lon="6.58941">
        <ele>1878.33</ele>
        <time>2016-07-15T12:10:07Z</time>
      </trkpt>
      <trkpt lat="45.36787" lon="6.58929">
        <ele>1880.33</ele>
        <time>2016-07-15T12:10:20Z</time>
      </trkpt>
      <trkpt lat="45.36803" lon="6.58911">
        <ele>1880.33</ele>
        <time>2016-07-15T12:10:32Z</time>
      </trkpt>
      <trkpt lat="45.36823" lon="6.58908">
        <ele>1877.57</ele>
        <time>2016-07-15T12:10:50Z</time>
      </trkpt>
      <trkpt lat="45.3684" lon="6.58919">
        <ele>1873.73</ele>
        <time>2016-07-15T12:10:59Z</time>
      </trkpt>
      <trkpt lat="45.36847" lon="6.58895">
        <ele>1870.58</ele>
        <time>2016-07-15T12:11:31Z</time>
      </trkpt>
      <trkpt lat="45.36855" lon="6.58871">
        <ele>1864.77</ele>
        <time>2016-07-15T12:11:46Z</time>
      </trkpt>
      <trkpt lat="45.3687" lon="6.58856">
        <ele>1862.33</ele>
        <time>2016-07-15T12:11:59Z</time>
      </trkpt>
      <trkpt lat="45.36888" lon="6.5885">
        <ele>1860.33</ele>
        <time>2016-07-15T12:12:15Z</time>
      </trkpt>
      <trkpt lat="45.369" lon="6.58828">
        <ele>1861.57</ele>
        <time>2016-07-15T12:12:26Z</time>
      </trkpt>
      <trkpt lat="45.36914" lon="6.5881">
        <ele>1856.62</ele>
        <time>2016-07-15T12:12:36Z</time>
      </trkpt>
      <trkpt lat="45.36931" lon="6.58797">
        <ele>1852.39</ele>
        <time>2016-07-15T12:12:47Z</time>
      </trkpt>
      <trkpt lat="45.36914" lon="6.58783">
        <ele>1842.38</ele>
        <time>2016-07-15T12:13:17Z</time>
      </trkpt>
      <trkpt lat="45.3692" lon="6.58757">
        <ele>1833.57</ele>
        <time>2016-07-15T12:13:40Z</time>
      </trkpt>
      <trkpt lat="45.36928" lon="6.58731">
        <ele>1828.53</ele>
        <time>2016-07-15T12:13:59Z</time>
      </trkpt>
      <trkpt lat="45.36943" lon="6.58715">
        <ele>1820.73</ele>
        <time>2016-07-15T12:14:13Z</time>
      </trkpt>
      <trkpt lat="45.36951" lon="6.58688">
        <ele>1819.3</ele>
        <time>2016-07-15T12:14:22Z</time>
      </trkpt>
      <trkpt lat="45.36961" lon="6.58666">
        <ele>1817.57</ele>
        <time>2016-07-15T12:14:34Z</time>
      </trkpt>
      <trkpt lat="45.36978" lon="6.58656">
        <ele>1814.96</ele>
        <time>2016-07-15T12:14:55Z</time>
      </trkpt>
      <trkpt lat="45.3699" lon="6.58627">
        <ele>1809.38</ele>
        <time>2016-07-15T12:15:06Z</time>
      </trkpt>
      <trkpt lat="45.37009" lon="6.58623">
        <ele>1804.57</ele>
        <time>2016-07-15T12:15:14Z</time>
      </trkpt>
      <trkpt lat="45.37025" lon="6.58612">
        <ele>1794.54</ele>
        <time>2016-07-15T12:16:34Z</time>
      </trkpt>
      <trkpt lat="45.3704" lon="6.58593">
        <ele>1788.37</ele>
        <time>2016-07-15T12:16:59Z</time>
      </trkpt>
      <trkpt lat="45.3705" lon="6.58567">
        <ele>1786.32</ele>
        <time>2016-07-15T12:17:14Z</time>
      </trkpt>
      <trkpt lat="45.37066" lon="6.58552">
        <ele>1783.73</ele>
        <time>2016-07-15T12:17:34Z</time>
      </trkpt>
      <trkpt lat="45.37073" lon="6.58529">
        <ele>1776.33</ele>
        <time>2016-07-15T12:17:56Z</time>
      </trkpt>
      <trkpt lat="45.37091" lon="6.5853">
        <ele>1771.93</ele>
        <time>2016-07-15T12:18:21Z</time>
      </trkpt>
      <trkpt lat="45.37101" lon="6.58508">
        <ele>1774.52</ele>
        <time>2016-07-15T12:18:35Z</time>
      </trkpt>
      <trkpt lat="45.3712" lon="6.58505">
        <ele>1765.33</ele>
        <time>2016-07-15T12:19:11Z</time>
      </trkpt>
      <trkpt lat="45.37132" lon="6.58485">
        <ele>1762.97</ele>
        <time>2016-07-15T12:19:27Z</time>
      </trkpt>
      <trkpt lat="45.37142" lon="6.58462">
        <ele>1762.33</ele>
        <time>2016-07-15T12:19:43Z</time>
      </trkpt>
      <trkpt lat="45.3716" lon="6.58459">
        <ele>1764.12</ele>
        <time>2016-07-15T12:19:57Z</time>
      </trkpt>
      <trkpt lat="45.37167" lon="6.58434">
        <ele>1767.53</ele>
        <time>2016-07-15T12:20:11Z</time>
      </trkpt>
      <trkpt lat="45.37181" lon="6.58417">
        <ele>1768.54</ele>
        <time>2016-07-15T12:20:24Z</time>
      </trkpt>
      <trkpt lat="45.37178" lon="6.58391">
        <ele>1766.49</ele>
        <time>2016-07-15T12:20:41Z</time>
      </trkpt>
      <trkpt lat="45.37191" lon="6.58373">
        <ele>1766.57</ele>
        <time>2016-07-15T12:21:01Z</time>
      </trkpt>
      <trkpt lat="45.37207" lon="6.5836">
        <ele>1759.56</ele>
        <time>2016-07-15T12:21:19Z</time>
      </trkpt>
      <trkpt lat="45.37193" lon="6.58342">
        <ele>1747.69</ele>
        <time>2016-07-15T12:21:33Z</time>
      </trkpt>
      <trkpt lat="45.37178" lon="6.58321">
        <ele>1746.57</ele>
        <time>2016-07-15T12:21:52Z</time>
      </trkpt>
      <trkpt lat="45.3716" lon="6.58324">
        <ele>1743.69</ele>
        <time>2016-07-15T12:22:08Z</time>
      </trkpt>
      <trkpt lat="45.37137" lon="6.58334">
        <ele>1743.14</ele>
        <time>2016-07-15T12:22:24Z</time>
      </trkpt>
      <trkpt lat="45.37126" lon="6.58354">
        <ele>1738.33</ele>
        <time>2016-07-15T12:22:45Z</time>
      </trkpt>
      <trkpt lat="45.37107" lon="6.58365">
        <ele>1735.13</ele>
        <time>2016-07-15T12:23:02Z</time>
      </trkpt>
      <trkpt lat="45.37104" lon="6.58392">
        <ele>1737.48</ele>
        <time>2016-07-15T12:23:20Z</time>
      </trkpt>
      <trkpt lat="45.37103" lon="6.58418">
        <ele>1739.33</ele>
        <time>2016-07-15T12:23:32Z</time>
      </trkpt>
      <trkpt lat="45.37094" lon="6.58443">
        <ele>1742.27</ele>
        <time>2016-07-15T12:23:41Z</time>
      </trkpt>
      <trkpt lat="45.37076" lon="6.58442">
        <ele>1735.57</ele>
        <time>2016-07-15T12:24:58Z</time>
      </trkpt>
      <trkpt lat="45.37054" lon="6.58442">
        <ele>1736.53</ele>
        <time>2016-07-15T12:25:07Z</time>
      </trkpt>
      <trkpt lat="45.37036" lon="6.58434">
        <ele>1731.48</ele>
        <time>2016-07-15T12:25:23Z</time>
      </trkpt>
      <trkpt lat="45.37018" lon="6.5844">
        <ele>1727.13</ele>
        <time>2016-07-15T12:25:41Z</time>
      </trkpt>
      <trkpt lat="45.36999" lon="6.58444">
        <ele>1726.75</ele>
        <time>2016-07-15T12:25:51Z</time>
      </trkpt>
      <trkpt lat="45.36981" lon="6.58444">
        <ele>1718.3</ele>
        <time>2016-07-15T12:26:12Z</time>
      </trkpt>
      <trkpt lat="45.36964" lon="6.58458">
        <ele>1718.48</ele>
        <time>2016-07-15T12:26:27Z</time>
      </trkpt>
      <trkpt lat="45.36947" lon="6.58471">
        <ele>1719.49</ele>
        <time>2016-07-15T12:26:41Z</time>
      </trkpt>
      <trkpt lat="45.36934" lon="6.58491">
        <ele>1718.13</ele>
        <time>2016-07-15T12:26:55Z</time>
      </trkpt>
      <trkpt lat="45.36919" lon="6.58509">
        <ele>1714.3</ele>
        <time>2016-07-15T12:27:11Z</time>
      </trkpt>
      <trkpt lat="45.36901" lon="6.5852">
        <ele>1717.73</ele>
        <time>2016-07-15T12:27:22Z</time>
      </trkpt>
      <trkpt lat="45.36884" lon="6.5853">
        <ele>1715.73</ele>
        <time>2016-07-15T12:27:33Z</time>
      </trkpt>
      <trkpt lat="45.36866" lon="6.58532">
        <ele>1716.53</ele>
        <time>2016-07-15T12:27:46Z</time>
      </trkpt>
      <trkpt lat="45.3685" lon="6.58546">
        <ele>1710.56</ele>
        <time>2016-07-15T12:28:05Z</time>
      </trkpt>
      <trkpt lat="45.36832" lon="6.58557">
        <ele>1712.53</ele>
        <time>2016-07-15T12:28:18Z</time>
      </trkpt>
      <trkpt lat="45.36814" lon="6.58556">
        <ele>1709.53</ele>
        <time>2016-07-15T12:28:35Z</time>
      </trkpt>
      <trkpt lat="45.36798" lon="6.58568">
        <ele>1705.73</ele>
        <time>2016-07-15T12:28:49Z</time>
      </trkpt>
      <trkpt lat="45.36779" lon="6.58562">
        <ele>1697.78</ele>
        <time>2016-07-15T12:29:06Z</time>
      </trkpt>
      <trkpt lat="45.36759" lon="6.58556">
        <ele>1696.74</ele>
        <time>2016-07-15T12:29:22Z</time>
      </trkpt>
      <trkpt lat="45.36742" lon="6.58565">
        <ele>1694.57</ele>
        <time>2016-07-15T12:29:37Z</time>
      </trkpt>
      <trkpt lat="45.36724" lon="6.58564">
        <ele>1692.54</ele>
        <time>2016-07-15T12:29:52Z</time>
      </trkpt>
      <trkpt lat="45.36705" lon="6.58567">
        <ele>1695.21</ele>
        <time>2016-07-15T12:30:02Z</time>
      </trkpt>
      <trkpt lat="45.36687" lon="6.58566">
        <ele>1695.53</ele>
        <time>2016-07-15T12:30:14Z</time>
      </trkpt>
      <trkpt lat="45.36685" lon="6.5854">
        <ele>1686.37</ele>
        <time>2016-07-15T12:30:37Z</time>
      </trkpt>
      <trkpt lat="45.36699" lon="6.58522">
        <ele>1688.49</ele>
        <time>2016-07-15T12:30:50Z</time>
      </trkpt>
      <trkpt lat="45.36714" lon="6.58507">
        <ele>1690.53</ele>
        <time>2016-07-15T12:31:02Z</time>
      </trkpt>
    </trkseg>
  </trk>
</gpx>